• Join FlightAware (Why Join?)
  • Login
  • US Flag 
05:50AM EST


 

Airport Tracker/Info


-or-


 

Live Flight TrackerFlight Track Log ✈ SIA21 ✈ 08-Nov-2013 ✈ KEWR - WSSS / SIN

Flight Track Log - Related Links

Times and Time Zones

All times are in EST time to prevent confusion due to time zone crossing. See the SIA21 flight status page for this flight to view local times or setup timezone preferences in your user account.

Time Position Orientation Groundspeed Altitude Reporting Facility
EST Latitude Longitude Course Direction KTS MPH feet Rate Location/Type
11:20PM 40.7250 -74.1480 26° Northeast 186 214 1,000  Level FlightAware
11:20PM 40.7420 -74.1330 34° Northeast 191 220 1,800 1,260 Climbing FlightAware
11:20PM 40.7637 -74.1133 35° Northeast 221 254 2,100 780 Climbing FlightAware ADS-B
11:21PM 40.7776 -74.1010 34° Northeast 240 276 2,400 1,380 Climbing FlightAware ADS-B
11:21PM 40.8038 -74.0790 32° Northeast 254 292 3,100 2,100 Climbing FlightAware ADS-B
11:21PM 40.8188 -74.0665 32° Northeast 258 297 3,900 3,180 Climbing FlightAware ADS-B
11:22PM 40.8340 -74.0533 33° Northeast 259 298 4,700 2,760 Climbing FlightAware ADS-B
11:22PM 40.8493 -74.0402 33° Northeast 260 299 5,300 2,400 Climbing FlightAware ADS-B
11:22PM 40.8658 -74.0261 33° Northeast 264 304 6,000 2,460 Climbing FlightAware ADS-B
11:22PM 40.8785 -74.0154 32° Northeast 267 307 6,500 2,280 Climbing FlightAware ADS-B
11:22PM 40.8846 -74.0096 36° Northeast 272 313 6,700 1,980 Climbing FlightAware ADS-B
11:23PM 40.8877 -74.0063 39° Northeast 274 315 6,800 1,980 Climbing FlightAware ADS-B
11:23PM 40.8904 -74.0027 45° Northeast 276 318 6,900 1,620 Climbing FlightAware ADS-B
11:23PM 40.9184 -73.9551 52° Northeast 306 352 7,800 1,320 Climbing FlightAware ADS-B
11:23PM 40.9309 -73.9316 55° Northeast 321 369 8,000 1,020 Climbing FlightAware ADS-B
11:24PM 40.9424 -73.9097 55° Northeast 332 382 8,300 1,080 Climbing FlightAware ADS-B
11:24PM 40.9598 -73.8784 54° Northeast 348 400 8,600 1,080 Climbing FlightAware ADS-B
11:24PM 40.9783 -73.8455 53° Northeast 360 414 9,000 2,040 Climbing FlightAware ADS-B
11:25PM 41.0154 -73.7812 53° Northeast 362 417 10,500 2,160 Climbing FlightAware ADS-B
11:25PM 41.0520 -73.7180 52° Northeast 378 435 11,600 1,800 Climbing FlightAware
11:26PM 41.0701 -73.6870 52° Northeast 384 442 12,100 1,800 Climbing FlightAware ADS-B (KSNC)
11:27PM 41.1500 -73.5470 53° Northeast 407 468 14,300 1,800 Climbing FlightAware
11:27PM 41.1736 -73.5057 53° Northeast 410 472 15,200 1,800 Climbing FlightAware ADS-B (KSNC)
11:28PM 41.2272 -73.4152 52° Northeast 409 471 16,300 1,800 Climbing FlightAware ADS-B (KSNC)
11:29PM 41.2648 -73.3564 50° Northeast 406 467 17,300 1,500 Climbing FlightAware ADS-B (KSNC)
11:29PM 41.3073 -73.2891 50° Northeast 415 478 18,000 1,200 Climbing FlightAware ADS-B (KSNC)
11:30PM 41.3452 -73.2282 50° Northeast 420 483 18,600 1,500 Climbing FlightAware ADS-B (KSNC)
11:30PM 41.4024 -73.1357 50° Northeast 420 483 19,900 1,380 Climbing FlightAware ADS-B (KSNC)
11:31PM 41.4405 -73.0742 50° Northeast 428 493 20,400 900 Climbing FlightAware ADS-B (KSNC)
11:32PM 41.4959 -72.9845 50° Northeast 437 503 21,100 900 Climbing FlightAware ADS-B (KSNC)
11:32PM 41.5387 -72.9149 51° Northeast 443 510 21,600 1,200 Climbing FlightAware ADS-B (KSNC)
11:33PM 41.5978 -72.8183 51° Northeast 446 513 22,700 1,200 Climbing FlightAware ADS-B (KSNC)
11:34PM 41.6499 -72.7331 51° Northeast 449 517 23,300 1,020 Climbing FlightAware ADS-B (KSNC)
11:34PM 41.6944 -72.6601 51° Northeast 448 516 24,000 1,020 Climbing FlightAware ADS-B (KSNC)
11:35PM 41.7465 -72.5744 51° Northeast 456 525 24,600 720 Climbing FlightAware ADS-B (KSNC)
11:35PM 41.7878 -72.5066 51° Northeast 462 532 24,900 720 Climbing FlightAware ADS-B (KSNC)
11:36PM 41.8314 -72.4344 51° Northeast 465 535 25,400 900 Climbing FlightAware ADS-B (KSNC)
11:37PM 41.8865 -72.3428 51° Northeast 467 537 26,000 900 Climbing FlightAware ADS-B (KSNC)
11:37PM 41.9281 -72.2737 51° Northeast 470 541 26,500 900 Climbing FlightAware ADS-B (KSNC)
11:38PM 41.9723 -72.2001 51° Northeast 472 543 27,000 840 Climbing FlightAware ADS-B (KSNC)
11:38PM 42.0341 -72.0970 51° Northeast 477 549 27,600 1,020 Climbing FlightAware ADS-B (SBBR / BSB)
11:39PM 42.0609 -72.0518 51° Northeast 468 539 28,100 1,440 Climbing FlightAware ADS-B
11:39PM 42.0795 -72.0206 51° Northeast 469 540 28,400 720 Climbing FlightAware ADS-B
11:39PM 42.1031 -71.9810 51° Northeast 473 544 28,500 720 Climbing FlightAware ADS-B
11:40PM 42.1440 -71.9124 51° Northeast 478 550 29,000 1,260 Climbing FlightAware ADS-B (KSNC)
11:40PM 42.1859 -71.8416 51° Northeast 474 545 29,800 1,500 Climbing FlightAware ADS-B (KSNC)
11:40PM 42.1938 -71.8282 51° Northeast 474 545 29,900 480 Climbing FlightAware ADS-B (KBOS)
11:41PM 42.2331 -71.7619 51° Northeast 480 552 30,100 600 Climbing FlightAware ADS-B (KSNC)
11:41PM 42.2583 -71.7194 51° Northeast 480 552 30,600 1,080 Climbing FlightAware ADS-B (KBOS)
11:42PM 42.3121 -71.6279 52° Northeast 474 545 31,100 1,020 Climbing FlightAware ADS-B
11:42PM 42.3679 -71.5328 51° Northeast 478 550 31,700 600 Climbing FlightAware ADS-B
11:43PM 42.4095 -71.4619 52° Northeast 490 564 31,800 360 Climbing FlightAware ADS-B
11:43PM 42.4516 -71.3897 52° Northeast 491 565 32,100 480 Climbing FlightAware ADS-B
11:44PM 42.4931 -71.3186 52° Northeast 495 570 32,300 600 Climbing FlightAware ADS-B (KBOS)
11:44PM 42.5367 -71.2435 52° Northeast 497 572 32,700 660 Climbing FlightAware ADS-B (KBOS)
11:45PM 42.5803 -71.1684 52° Northeast 501 577 33,000 360 Climbing FlightAware ADS-B (KBOS)
11:45PM 42.6075 -71.1214 52° Northeast 499 574 33,000  Level FlightAware ADS-B
11:45PM 42.6179 -71.1035 52° Northeast 501 577 33,000  Level FlightAware ADS-B
11:45PM 42.6262 -71.0890 52° Northeast 500 575 33,000  Level FlightAware ADS-B
11:46PM 42.6661 -71.0196 52° Northeast 506 582 33,000  Level FlightAware ADS-B (KBOS)
11:46PM 42.6877 -70.9821 52° Northeast 501 577 33,000  Level FlightAware ADS-B
11:46PM 42.7067 -70.9490 52° Northeast 503 579 33,000  Level FlightAware ADS-B
11:47PM 42.7224 -70.9218 52° Northeast 507 583 33,000  Level FlightAware ADS-B
11:47PM 42.7367 -70.8969 52° Northeast 509 586 33,000  Level FlightAware ADS-B
11:47PM 42.7481 -70.8771 52° Northeast 509 586 33,000  Level FlightAware ADS-B
11:47PM 42.7941 -70.7966 52° Northeast 513 590 33,000  Level FlightAware ADS-B (KBOS)
11:47PM 42.8064 -70.7752 52° Northeast 508 585 33,000  Level FlightAware ADS-B
11:48PM 42.8227 -70.7467 52° Northeast 508 585 33,000  Level FlightAware ADS-B
11:48PM 42.8351 -70.7247 52° Northeast 508 585 33,000  Level FlightAware ADS-B
11:48PM 42.8488 -70.7009 52° Northeast 508 585 33,000  Level FlightAware ADS-B
11:48PM 42.8831 -70.6407 52° Northeast 513 590 33,000  Level FlightAware ADS-B (KBOS)
11:49PM 42.9057 -70.6008 52° Northeast 508 585 33,000  Level FlightAware ADS-B
11:49PM 42.9406 -70.5394 52° Northeast 510 587 33,000  Level FlightAware ADS-B
11:49PM 42.9519 -70.5194 52° Northeast 510 587 33,000  Level FlightAware ADS-B
11:49PM 42.9708 -70.4860 52° Northeast 515 593 33,000  Level FlightAware ADS-B (KBOS)
11:50PM 43.0134 -70.4107 52° Northeast 518 596 33,000  Level FlightAware ADS-B (KBOS)
11:50PM 43.0262 -70.3880 52° Northeast 513 590 33,000  Level FlightAware ADS-B
11:50PM 43.0434 -70.3574 52° Northeast 514 592 33,000  Level FlightAware ADS-B
11:51PM 43.0882 -70.2778 52° Northeast 515 593 33,000  Level FlightAware ADS-B (KBOS)
11:51PM 43.1455 -70.1758 52° Northeast 514 592 33,000  Level FlightAware ADS-B (KBOS)
11:52PM 43.1882 -70.0994 52° Northeast 514 592 33,000  Level FlightAware ADS-B (KBOS)
11:53PM 43.2455 -69.9964 53° Northeast 511 588 33,000  Level FlightAware ADS-B (KBOS)
11:53PM 43.2816 -69.9316 53° Northeast 510 587 33,000  Level FlightAware ADS-B (KBOS)
11:54PM 43.3308 -69.8430 53° Northeast 513 590 33,000  Level FlightAware ADS-B
11:54PM 43.3717 -69.7691 53° Northeast 513 590 33,000  Level FlightAware ADS-B (KBOS)
11:55PM 43.4176 -69.6858 53° Northeast 516 594 33,000  Level FlightAware ADS-B (KBOS)
11:55PM 43.4312 -69.6612 53° Northeast 513 590 33,000  Level FlightAware ADS-B
11:55PM 43.4459 -69.6344 53° Northeast 514 592 33,000  Level FlightAware ADS-B
11:55PM 43.4592 -69.6103 53° Northeast 514 592 33,000  Level FlightAware ADS-B
11:55PM 43.4749 -69.5818 53° Northeast 516 594 33,000  Level FlightAware ADS-B
11:55PM 43.4902 -69.5538 53° Northeast 521 600 33,000  Level FlightAware ADS-B (KBOS)
11:56PM 43.5474 -69.4491 53° Northeast 516 594 33,000  Level FlightAware ADS-B (KBOS)
11:57PM 43.6032 -69.3468 53° Northeast 511 588 33,000  Level FlightAware ADS-B
11:57PM 43.6464 -69.2675 53° Northeast 514 592 33,000  Level FlightAware ADS-B (KBOS)
11:58PM 43.6892 -69.1886 53° Northeast 512 589 33,000  Level FlightAware ADS-B (KBOS)
11:58PM 43.7449 -69.0855 53° Northeast 514 592 33,000  Level FlightAware ADS-B (KBOS)
11:59PM 43.8037 -68.9765 53° Northeast 513 590 33,000  Level FlightAware ADS-B (KBOS)
12:00AM 43.8571 -68.8768 53° Northeast 509 586 33,000  Level FlightAware ADS-B (KBOS)
12:00AM 43.8801 -68.8339 53° Northeast 508 585 33,000  Level FlightAware ADS-B
12:01AM 43.9293 -68.7420 53° Northeast 510 587 33,000  Level FlightAware ADS-B (KBOS)
12:01AM 43.9673 -68.6706 53° Northeast 512 589 33,000  Level FlightAware ADS-B (KBOS)
12:02AM 44.0130 -68.5840 54° Northeast 512 589 33,000  Level FlightAware
12:02AM 44.0517 -68.5115 53° Northeast 516 594 33,000  Level FlightAware ADS-B
12:03AM 44.1020 -68.4170 53° Northeast 515 593 33,000  Level FlightAware
12:03AM 44.0002 -68.6087 234° Southwest 515 593 33,000  Level FlightAware ADS-B (KBGR)
12:04AM 44.2490 -68.1370 54° Northeast 513 590 33,000  Level FlightAware
12:05AM 44.1915 -68.2462 234° Southwest 516 594 33,000  Level FlightAware ADS-B (KBGR)
12:06AM 44.3960 -67.8530 54° Northeast 515 593 33,000  Level FlightAware
12:07AM 44.4630 -67.7240 54° Northeast 519 597 33,000  Level FlightAware
12:08AM 44.5370 -67.5800 54° Northeast 523 602 33,000  Level FlightAware
12:09AM 44.6123 -67.4321 54° Northeast 523 602 33,000  Level FlightAware ADS-B (KBGR)
12:09AM 44.6696 -67.3196 54° Northeast 523 602 33,000  Level FlightAware ADS-B (KBGR)
12:10AM 44.7117 -67.2366 54° Northeast 523 602 33,000  Level FlightAware ADS-B (KBGR)
12:11AM 44.7920 -67.0780 54° Northeast 520 598 33,000  Level FlightAware
12:11AM 44.8290 -67.0050 54° Northeast 522 601 33,000  Level FlightAware
12:12AM 44.9030 -66.8560 55° Northeast 521 600 33,000  Level FlightAware
12:13AM 44.9660 -66.7300 55° Northeast 516 594 33,000  Level FlightAware
12:14AM 45.0320 -66.5960 55° Northeast 517 595 33,000  Level FlightAware
12:14AM 45.0880 -66.4820 55° Northeast 517 595 33,000  Level FlightAware
12:16AM 45.1840 -66.2880 55° Northeast 514 592 33,000  Level FlightAware
12:16AM 45.2450 -66.1640 55° Northeast 514 592 33,000  Level FlightAware
12:17AM 45.3010 -66.0490 55° Northeast 516 594 33,000  Level FlightAware
12:18AM 45.3610 -65.9240 56° Northeast 520 598 33,000  Level FlightAware
12:18AM 45.4080 -65.8260 56° Northeast 520 598 33,000  Level FlightAware
12:19AM 45.4770 -65.6830 55° Northeast 519 597 33,000  Level FlightAware
12:20AM 45.5170 -65.5990 56° Northeast 522 601 33,000  Level FlightAware
12:20AM 45.5840 -65.4590 56° Northeast 520 598 33,000  Level FlightAware
12:21AM 45.6230 -65.3780 55° Northeast 521 600 33,000  Level FlightAware
12:22AM 45.7000 -65.2150 56° Northeast 520 598 33,000  Level FlightAware
12:22AM 45.7410 -65.1270 56° Northeast 518 596 33,000  Level FlightAware
12:23AM 45.7980 -65.0060 56° Northeast 515 593 33,000  Level FlightAware
12:24AM 45.8500 -64.8960 56° Northeast 514 592 33,000  Level FlightAware
12:24AM 45.8930 -64.8020 57° Northeast 524 603 33,000  Level FlightAware
12:25AM 45.9690 -64.6390 56° Northeast 522 601 33,000  Level FlightAware
12:26AM 46.0340 -64.4970 57° Northeast 520 598 33,000  Level FlightAware
12:27AM 46.0770 -64.4030 57° Northeast 521 600 33,000  Level FlightAware
12:27AM 46.1290 -64.2890 57° Northeast 525 604 33,000  Level FlightAware
12:28AM 46.1650 -64.2110 56° Northeast 522 601 33,000  Level FlightAware
12:29AM 46.2300 -64.0690 56° Northeast 526 605 33,000  Level FlightAware
12:29AM 46.2960 -63.9220 57° Northeast 525 604 33,000  Level FlightAware
12:30AM 46.3360 -63.8320 57° Northeast 525 604 33,000  Level FlightAware
12:30AM 46.3790 -63.7360 57° Northeast 524 603 33,000  Level FlightAware
12:31AM 46.4530 -63.5710 57° Northeast 525 604 33,000  Level FlightAware
12:32AM 46.5220 -63.4150 57° Northeast 523 602 33,000  Level FlightAware
12:33AM 46.5840 -63.2750 57° Northeast 525 604 33,000  Level FlightAware
12:34AM 46.6520 -63.1190 58° Northeast 527 606 33,000  Level FlightAware
12:35AM 46.7170 -62.9710 57° Northeast 528 608 33,000  Level FlightAware
12:36AM 46.7920 -62.7970 58° Northeast 528 608 33,000  Level FlightAware
12:36AM 46.8550 -62.6520 58° Northeast 530 610 33,000  Level FlightAware
12:37AM 46.8950 -62.5590 58° Northeast 528 608 33,000  Level FlightAware
12:38AM 46.9790 -62.3600 58° Northeast 527 606 33,000  Level FlightAware
12:39AM 47.0420 -62.2120 58° Northeast 529 609 33,000  Level FlightAware
12:40AM 47.1170 -62.0350 58° Northeast 535 616 33,000  Level FlightAware
12:41AM 47.1910 -61.8590 58° Northeast 536 617 33,000  Level FlightAware
12:41AM 47.2350 -61.7520 59° Northeast 536 617 33,000  Level FlightAware
12:42AM 47.3150 -61.5610 58° Northeast 539 620 33,000  Level FlightAware
12:43AM 47.3500 -61.4750 59° Northeast 539 620 33,000  Level FlightAware
12:44AM 47.4120 -61.3240 59° Northeast 539 620 33,000  Level FlightAware
12:45AM 47.4870 -61.1400 59° Northeast 538 619 33,000  Level FlightAware
12:45AM 47.5510 -60.9820 59° Northeast 540 621 33,000  Level FlightAware
12:46AM 47.5930 -60.8800 59° Northeast 539 620 33,000  Level FlightAware
12:47AM 47.6340 -60.7770 59° Northeast 539 620 33,000  Level FlightAware
12:47AM 47.6700 -60.6860 60° Northeast 540 621 33,000  Level FlightAware
12:48AM 47.7330 -60.5300 59° Northeast 539 620 33,000  Level FlightAware
12:49AM 47.8100 -60.3350 59° Northeast 539 620 33,000  Level FlightAware
12:50AM 47.8830 -60.1520 59° Northeast 538 619 33,000  Level FlightAware
12:51AM 47.9350 -60.0220 59° Northeast 538 619 33,000  Level FlightAware
12:51AM 47.9950 -59.8620 61° Northeast 545 627 33,000  Level FlightAware
12:52AM 48.0380 -59.7550 59° Northeast 545 627 33,000  Level FlightAware
12:53AM 48.0780 -59.6560 59° Northeast 545 627 33,000  Level FlightAware
12:53AM 48.1180 -59.5570 59° Northeast 545 627 33,000  Level FlightAware
12:54AM 48.2170 -59.2830 61° Northeast 550 633 33,000  Level FlightAware
12:55AM 48.2600 -59.1700 60° Northeast 549 632 33,000  Level FlightAware
12:55AM 48.2960 -59.0750 60° Northeast 549 632 33,000  Level FlightAware
12:56AM 48.3400 -58.9590 60° Northeast 545 627 33,000  Level FlightAware
12:57AM 48.4290 -58.7200 61° Northeast 552 635 33,000  Level FlightAware
12:58AM 48.4820 -58.5770 61° Northeast 554 638 33,000  Level FlightAware
12:59AM 48.5590 -58.3680 61° Northeast 556 640 33,000  Level FlightAware
01:00AM 48.6080 -58.2340 61° Northeast 554 638 33,000  Level FlightAware
01:00AM 48.6640 -58.0790 61° Northeast 554 638 33,000  Level FlightAware
01:01AM 48.7360 -57.8790 61° Northeast 556 640 33,000  Level FlightAware
01:02AM 48.7720 -57.7760 62° Northeast 555 639 33,000  Level FlightAware
01:02AM 48.8060 -57.6730 63° Northeast 555 639 33,000  Level FlightAware
01:03AM 48.8530 -57.5300 63° Northeast 557 641 33,000  Level FlightAware
01:04AM 48.8910 -57.4140 63° Northeast 559 643 33,000  Level FlightAware
01:04AM 48.9270 -57.3050 63° Northeast 559 643 33,000  Level FlightAware
01:05AM 48.9900 -57.1130 63° Northeast 559 643 33,000  Level FlightAware
01:06AM 49.0360 -56.9730 63° Northeast 557 641 33,000  Level FlightAware
01:06AM 49.0710 -56.8640 64° Northeast 557 641 33,000  Level FlightAware
01:07AM 49.1050 -56.7570 64° Northeast 557 641 33,000  Level FlightAware
01:07AM 49.1450 -56.6350 63° Northeast 558 642 33,000  Level FlightAware
01:08AM 49.1790 -56.5270 64° Northeast 560 644 33,000  Level FlightAware
01:08AM 49.2190 -56.4030 64° Northeast 561 646 33,000  Level FlightAware
01:09AM 49.2580 -56.2770 65° Northeast 560 644 33,000  Level FlightAware
01:10AM 49.3240 -56.0670 64° Northeast 562 647 33,000  Level FlightAware
01:11AM 49.3880 -55.8630 64° Northeast 567 652 33,000  Level FlightAware
01:11AM 49.4100 -55.7910 65° Northeast 567 652 33,000  Level FlightAware
01:12AM 49.4840 -55.5510 65° Northeast 567 652 33,000  Level FlightAware
01:13AM 49.5630 -55.2910 65° Northeast 573 659 33,000  Level FlightAware
01:14AM 49.6240 -55.0910 65° Northeast 576 663 33,000  Level FlightAware
01:15AM 49.6890 -54.8740 65° Northeast 574 661 33,000  Level FlightAware
01:16AM 49.7250 -54.7500 66° East 576 663 33,000  Level FlightAware
01:17AM 49.7760 -54.5800 65° Northeast 583 671 33,000  Level FlightAware
01:17AM 49.8070 -54.4750 65° Northeast 581 669 33,000 480 Level FlightAware
01:18AM 49.8400 -54.3600 66° East 577 664 33,500 720 Climbing FlightAware
01:19AM 49.9120 -54.1140 65° Northeast 580 667 34,200 600 Climbing FlightAware
01:19AM 49.9640 -53.9330 66° East 582 670 34,700 480 Climbing FlightAware
01:20AM 50.0200 -53.7340 66° East 580 667 35,000 180 Climbing FlightAware
01:21AM 50.0550 -53.6100 66° East 586 674 35,000  Level FlightAware
01:21AM 50.0900 -53.4880 66° East 588 677 35,000  Level FlightAware
01:22AM 50.1260 -53.3580 67° East 593 682 35,000  Level FlightAware
01:23AM 50.1980 -53.1010 66° East 597 687 35,000  Level FlightAware
01:24AM 50.2520 -52.9030 67° East 599 689 35,000  Level FlightAware
01:25AM 50.3060 -52.7110 66° East 593 682 35,000  Level FlightAware
01:25AM 50.3430 -52.5690 68° East 594 684 35,000  Level FlightAware
01:26AM 50.3810 -52.4270 67° East 596 686 35,000  Level FlightAware
01:27AM 50.4350 -52.2300 67° East 598 688 35,000  Level FlightAware
01:27AM 50.4570 -52.1480 67° East 598 688 35,000  Level FlightAware
01:28AM 50.5120 -51.9440 67° East 598 688 35,000  Level FlightAware
01:29AM 50.5340 -51.8620 67° East 598 688 35,000  Level FlightAware
01:29AM 50.5670 -51.7390 67° East 598 688 35,000  Level FlightAware
01:30AM 50.6000 -51.6170 67° East 598 688 35,000  Level FlightAware
01:31AM 50.6450 -51.4490 67° East 598 688 35,000  Level FlightAware
01:31AM 50.6670 -51.3670 67° East 598 688 35,000  Level FlightAware
01:32AM 50.7220 -51.1620 67° East 598 688 35,000  Level FlightAware
01:33AM 50.7550 -51.0390 67° East 598 688 35,000  Level FlightAware
01:33AM 50.7880 -50.9160 67° East 598 688 35,000  Level FlightAware
01:34AM 50.8210 -50.7930 67° East 598 688 35,000  Level FlightAware
01:34AM 50.8540 -50.6690 67° East 598 688 35,000  Level FlightAware
01:35AM 50.8870 -50.5460 67° East 598 688 35,000  Level FlightAware
01:35AM 50.9090 -50.4630 67° East 598 688 35,000  Level FlightAware
01:36AM 50.9530 -50.2990 67° East 598 688 35,000  Level FlightAware
01:37AM 51.0500 -49.6833 67° East 600 690 35,000  Level Gander Center
01:38AM 51.1167 -49.4167 68° East 600 690 35,000  Level Gander Center
01:42AM 51.3348 -49.1966 32° Northeast  Level Estimated
01:46AM 51.0000 -50.0000 68° East 596 686 35,000  Level ETMS Enhanced Traffic Management System
01:49AM 52.1079 -48.3958 32° Northeast  Level Estimated
01:50AM 52.2179 -48.2792 33° Northeast  Level Estimated
01:51AM 52.3278 -48.1619 33° Northeast  Level Estimated
01:52AM 51.9225 -46.0066 71° East 596 686 35,000  Level FlightAware Transoceanic
01:53AM 51.9756 -45.7518 71° East 596 686 35,000  Level FlightAware Transoceanic
01:54AM 52.0281 -45.4963 72° East 596 686 35,000  Level FlightAware Transoceanic
01:55AM 52.0801 -45.2402 72° East 596 686 35,000  Level FlightAware Transoceanic
01:56AM 52.1315 -44.9836 72° East 596 686 35,000  Level FlightAware Transoceanic
01:57AM 52.1824 -44.7263 72° East 596 686 35,000  Level FlightAware Transoceanic
01:58AM 52.2327 -44.4685 72° East 596 686 35,000  Level FlightAware Transoceanic
01:59AM 52.2824 -44.2101 73° East 596 686 35,000  Level FlightAware Transoceanic
02:00AM 52.3316 -43.9511 73° East 596 686 35,000  Level FlightAware Transoceanic
02:01AM 52.3802 -43.6915 73° East 596 686 35,000  Level FlightAware Transoceanic
02:02AM 52.4283 -43.4314 73° East 596 686 35,000  Level FlightAware Transoceanic
02:03AM 52.4757 -43.1707 73° East 596 686 35,000  Level FlightAware Transoceanic
02:04AM 52.5227 -42.9094 74° East 596 686 35,000  Level FlightAware Transoceanic
02:05AM 52.5690 -42.6476 74° East 596 686 35,000  Level FlightAware Transoceanic
02:06AM 52.6147 -42.3852 74° East 596 686 35,000  Level FlightAware Transoceanic
02:07AM 52.6599 -42.1223 74° East 596 686 35,000  Level FlightAware Transoceanic
02:08AM 52.7044 -41.8589 75° East 596 686 35,000  Level FlightAware Transoceanic
02:09AM 52.7485 -41.5949 75° East 596 686 35,000  Level FlightAware Transoceanic
02:10AM 52.7919 -41.3304 75° East 596 686 35,000  Level FlightAware Transoceanic
02:11AM 52.8347 -41.0653 75° East 596 686 35,000  Level FlightAware Transoceanic
02:12AM 52.8769 -40.7998 75° East 596 686 35,000  Level FlightAware Transoceanic
02:13AM 52.9185 -40.5337 76° East 596 686 35,000  Level FlightAware Transoceanic
02:14AM 52.9596 -40.2671 76° East 596 686 35,000  Level FlightAware Transoceanic
02:15AM 53.0579 -40.1226 41° Northeast  Level Estimated
02:16AM 53.1560 -39.9775 42° Northeast  Level Estimated
02:17AM 53.2539 -39.8317 42° Northeast  Level Estimated
02:18AM 53.3517 -39.6853 42° Northeast  Level Estimated
02:19AM 53.4493 -39.5382 42° Northeast  Level Estimated
02:20AM 53.5467 -39.3904 42° Northeast  Level Estimated
02:21AM 53.6440 -39.2419 42° Northeast  Level Estimated
02:22AM 53.7410 -39.0928 42° Northeast  Level Estimated
02:23AM 53.8379 -38.9429 42° Northeast  Level Estimated
02:24AM 53.9346 -38.7924 42° Northeast  Level Estimated
02:25AM 54.0310 -38.6411 43° Northeast  Level Estimated
02:26AM 54.1273 -38.4892 43° Northeast  Level Estimated
02:27AM 54.2234 -38.3365 43° Northeast  Level Estimated
02:28AM 54.3193 -38.1832 43° Northeast  Level Estimated
02:29AM 54.4150 -38.0291 43° Northeast  Level Estimated
02:30AM 54.5106 -37.8743 43° Northeast  Level Estimated
02:31AM 54.6059 -37.7188 43° Northeast  Level Estimated
02:32AM 54.7010 -37.5625 43° Northeast  Level Estimated
02:33AM 54.7959 -37.4055 44° Northeast  Level Estimated
02:33AM 53.0000 -40.0000 76° East 586 674 35,000  Level ETMS Enhanced Traffic Management System
02:34AM 54.8906 -37.2478 44° Northeast  Level Estimated
02:35AM 54.9851 -37.0893 44° Northeast  Level Estimated
02:36AM 55.0794 -36.9301 44° Northeast  Level Estimated
02:37AM 55.1735 -36.7701 44° Northeast  Level Estimated
02:38AM 55.2674 -36.6094 44° Northeast  Level Estimated
02:39AM 53.7676 -33.2928 82° East 586 674 35,000  Level FlightAware Transoceanic
02:40AM 53.7904 -33.0198 82° East 586 674 35,000  Level FlightAware Transoceanic
02:41AM 53.8126 -32.7466 82° East 586 674 35,000  Level FlightAware Transoceanic
02:42AM 53.8341 -32.4731 83° East 586 674 35,000  Level FlightAware Transoceanic
02:43AM 53.8551 -32.1993 83° East 586 674 35,000  Level FlightAware Transoceanic
02:44AM 53.8754 -31.9253 83° East 586 674 35,000  Level FlightAware Transoceanic
02:45AM 53.8951 -31.6509 83° East 586 674 35,000  Level FlightAware Transoceanic
02:46AM 53.9141 -31.3764 83° East 586 674 35,000  Level FlightAware Transoceanic
02:47AM 53.9326 -31.1016 84° East 586 674 35,000  Level FlightAware Transoceanic
02:48AM 53.9504 -30.8265 84° East 586 674 35,000  Level FlightAware Transoceanic
02:49AM 53.9675 -30.5512 84° East 586 674 35,000  Level FlightAware Transoceanic
02:50AM 53.9841 -30.2757 84° East 586 674 35,000  Level FlightAware Transoceanic
02:51AM 54.0664 -30.1018 51° Northeast  Level Estimated
02:52AM 54.1485 -29.9272 51° Northeast  Level Estimated
02:53AM 54.2303 -29.7518 51° Northeast  Level Estimated
02:53AM 54.0000 -30.0000 95° East 602 693 35,000  Level ETMS Enhanced Traffic Management System
02:54AM 54.3119 -29.5758 51° Northeast  Level Estimated
02:55AM 54.3932 -29.3991 52° Northeast  Level Estimated
02:56AM 54.4742 -29.2217 52° Northeast  Level Estimated
02:57AM 54.5550 -29.0435 52° Northeast  Level Estimated
02:58AM 54.6356 -28.8647 52° Northeast  Level Estimated
02:59AM 53.8288 -27.4585 98° East 602 693 35,000  Level FlightAware Transoceanic
03:00AM 53.8065 -27.1775 98° East 602 693 35,000  Level FlightAware Transoceanic
03:01AM 53.7835 -26.8967 98° East 602 693 35,000  Level FlightAware Transoceanic
03:02AM 53.7599 -26.6163 98° East 602 693 35,000  Level FlightAware Transoceanic
03:03AM 53.7356 -26.3363 98° East 602 693 35,000  Level FlightAware Transoceanic
03:04AM 53.7106 -26.0565 99° East 602 693 35,000  Level FlightAware Transoceanic
03:05AM 53.6850 -25.7771 99° East 602 693 35,000  Level FlightAware Transoceanic
03:06AM 53.6588 -25.4980 99° East 602 693 35,000  Level FlightAware Transoceanic
03:07AM 53.6319 -25.2192 99° East 602 693 35,000  Level FlightAware Transoceanic
03:08AM 53.6044 -24.9409 100° East 602 693 35,000  Level FlightAware Transoceanic
03:09AM 53.5762 -24.6629 100° East 602 693 35,000  Level FlightAware Transoceanic
03:10AM 53.5474 -24.3853 100° East 602 693 35,000  Level FlightAware Transoceanic
03:11AM 53.5179 -24.1080 100° East 602 693 35,000  Level FlightAware Transoceanic
03:12AM 53.4878 -23.8311 100° East 602 693 35,000  Level FlightAware Transoceanic
03:13AM 53.4571 -23.5547 101° East 602 693 35,000  Level FlightAware Transoceanic
03:14AM 53.4257 -23.2786 101° East 602 693 35,000  Level FlightAware Transoceanic
03:15AM 53.3937 -23.0030 101° East 602 693 35,000  Level FlightAware Transoceanic
03:16AM 53.3610 -22.7278 101° East 602 693 35,000  Level FlightAware Transoceanic
03:17AM 53.3277 -22.4529 102° East 602 693 35,000  Level FlightAware Transoceanic
03:18AM 53.2938 -22.1786 102° East 602 693 35,000  Level FlightAware Transoceanic
03:19AM 53.2593 -21.9046 102° East 602 693 35,000  Level FlightAware Transoceanic
03:20AM 53.2241 -21.6312 102° East 602 693 35,000  Level FlightAware Transoceanic
03:21AM 53.1883 -21.3581 102° East 602 693 35,000  Level FlightAware Transoceanic
03:22AM 53.1519 -21.0856 103° East 602 693 35,000  Level FlightAware Transoceanic
03:23AM 53.1148 -20.8135 103° East 602 693 35,000  Level FlightAware Transoceanic
03:24AM 53.0772 -20.5418 103° East 602 693 35,000  Level FlightAware Transoceanic
03:25AM 53.0389 -20.2707 103° East 602 693 35,000  Level FlightAware Transoceanic
03:26AM 53.1030 -20.0801 61° Northeast  Level Estimated
03:27AM 53.1668 -19.8889 61° Northeast  Level Estimated
03:28AM 53.2302 -19.6972 61° Northeast  Level Estimated
03:29AM 53.2934 -19.5049 61° Northeast  Level Estimated
03:30AM 53.3563 -19.3121 61° Northeast  Level Estimated
03:31AM 53.4188 -19.1187 61° Northeast  Level Estimated
03:32AM 53.4810 -18.9247 62° Northeast  Level Estimated
03:33AM 53.5429 -18.7301 62° Northeast  Level Estimated
03:34AM 53.6045 -18.5350 62° Northeast  Level Estimated
03:35AM 53.6658 -18.3393 62° Northeast  Level Estimated
03:36AM 53.7268 -18.1431 62° Northeast  Level Estimated
03:37AM 53.7874 -17.9462 62° Northeast  Level Estimated
03:38AM 53.8478 -17.7488 63° Northeast  Level Estimated
03:39AM 53.9077 -17.5509 63° Northeast  Level Estimated
03:40AM 53.9674 -17.3523 63° Northeast  Level Estimated
03:41AM 54.0267 -17.1532 63° Northeast  Level Estimated
03:42AM 54.0858 -16.9536 63° Northeast  Level Estimated
03:43AM 54.1444 -16.7533 63° Northeast  Level Estimated
03:44AM 54.2028 -16.5525 64° Northeast  Level Estimated
03:45AM 54.2608 -16.3512 64° Northeast  Level Estimated
03:46AM 54.3185 -16.1492 64° Northeast  Level Estimated
03:47AM 54.3758 -15.9467 64° Northeast  Level Estimated
03:48AM 54.4328 -15.7436 64° Northeast  Level Estimated
03:49AM 54.4894 -15.5400 64° Northeast  Level Estimated
03:50AM 54.5457 -15.3358 65° Northeast  Level Estimated
03:51AM 54.6017 -15.1311 65° Northeast  Level Estimated
03:52AM 54.6573 -14.9257 65° Northeast  Level Estimated
03:53AM 54.7126 -14.7199 65° Northeast  Level Estimated
03:53AM 52.8580 -12.8640 65° Northeast 582 670 35,000  Level FlightAware
03:53AM 52.8490 -12.7380 97° East 581 669 35,000  Level FlightAware
03:54AM 52.8320 -12.5270 98° East 577 664 35,000  Level FlightAware
03:55AM 52.8100 -12.2460 97° East 571 657 35,000  Level FlightAware
03:55AM 52.8000 -12.1320 98° East 572 658 35,000  Level FlightAware
03:56AM 52.7840 -11.9310 97° East 574 661 35,000  Level FlightAware
03:57AM 52.7610 -11.6650 98° East 577 664 35,000  Level FlightAware
03:58AM 52.7480 -11.5150 98° East 578 665 35,000  Level FlightAware
03:58AM 52.7380 -11.3930 98° East 578 665 35,000  Level FlightAware
03:59AM 52.7190 -11.1860 99° East 575 662 35,000  Level FlightAware
03:59AM 52.7080 -11.0680 99° East 574 661 35,000  Level FlightAware
04:00AM 52.6910 -10.8820 99° East 573 659 35,000  Level FlightAware
04:01AM 52.6800 -10.7600 98° East 570 656 35,000  Level FlightAware
04:01AM 52.6590 -10.5440 99° East 567 652 35,000  Level FlightAware
04:02AM 52.6430 -10.3780 99° East 562 647 35,000  Level FlightAware
04:03AM 52.6250 -10.1880 99° East 559 643 35,000  Level FlightAware
04:03AM 52.6100 -10.0380 99° East 555 639 35,000  Level FlightAware
04:04AM 52.5910 -9.8520 99° East 554 638 35,000  Level FlightAware
04:05AM 52.5760 -9.7050 99° East 554 638 35,000  Level FlightAware
04:05AM 52.5600 -9.5550 100° East 555 639 35,000  Level FlightAware
04:06AM 52.5460 -9.4190 100° East 552 635 35,000  Level FlightAware
04:07AM 52.5153 -9.1344 100° East 549 632 35,000  Level FlightAware ADS-B
04:08AM 52.4972 -8.9794 100° East 1 1 35,000  Level FlightAware UK
04:08AM 52.4973 -8.9706 100° East 547 629 35,000  Level FlightAware ADS-B
04:08AM 52.4895 -8.8989 100° East 548 631 35,000  Level FlightAware ADS-B
04:09AM 52.4675 -8.7014 100° East 553 636 35,000  Level FlightAware ADS-B
04:10AM 52.4509 -8.5554 100° East 550 633 35,000  Level FlightAware ADS-B
04:10AM 52.4352 -8.4182 101° East 549 632 35,000  Level FlightAware ADS-B (EPBY / BZG)
04:11AM 52.4150 -8.2421 101° East 482 555 35,000  Level FlightAware UK
04:11AM 52.4143 -8.2378 101° East 548 631 35,000  Level FlightAware ADS-B (EPBY / BZG)
04:11AM 52.3964 -8.0848 101° East 547 629 35,000  Level FlightAware ADS-B
04:12AM 52.3820 -7.9628 101° East 550 633 35,000  Level FlightAware ADS-B (EPBY / BZG)
04:13AM 52.3627 -7.8023 101° East 556 640 35,000  Level FlightAware ADS-B (EPBY / BZG)
04:13AM 52.3428 -7.6387 101° East 555 639 35,000  Level FlightAware ADS-B (EPBY / BZG)
04:14AM 52.3298 -7.5321 101° East 553 636 35,000  Level FlightAware ADS-B (EPBY / BZG)
04:14AM 52.3119 -7.3875 101° East 548 631 35,000  Level FlightAware ADS-B (EPBY / BZG)
04:15AM 52.2975 -7.2722 101° East 545 627 35,000  Level FlightAware ADS-B (EPBY / BZG)
04:15AM 52.2819 -7.1487 102° East 546 628 35,000  Level FlightAware ADS-B
04:16AM 52.2638 -7.0055 102° East 551 634 35,000  Level FlightAware ADS-B (EIDW / DUB)
04:16AM 52.2482 -6.8839 102° East 552 635 35,000  Level FlightAware ADS-B (EIDW / DUB)
04:17AM 52.2326 -6.7639 102° East 550 633 35,000  Level FlightAware ADS-B (EIDW / DUB)
04:17AM 52.2140 -6.6217 102° East 548 631 35,000  Level FlightAware ADS-B
04:18AM 52.1947 -6.4752 102° East 548 631 35,000  Level FlightAware ADS-B
04:19AM 52.1759 -6.3347 102° East 547 629 35,000  Level FlightAware ADS-B (EPBY / BZG)
04:19AM 52.1611 -6.2246 102° East 543 625 35,000  Level FlightAware ADS-B (EPBY / BZG)
04:20AM 52.1493 -6.1022 99° East 539 620 35,000  Level FlightAware ADS-B
04:20AM 52.1405 -5.9777 97° East 541 623 35,000  Level FlightAware ADS-B (EPBY / BZG)
04:21AM 52.1318 -5.8669 97° East 545 627 35,000  Level FlightAware ADS-B (EPBY / BZG)
04:21AM 52.1190 -5.7160 98° East 547 629 35,000  Level FlightAware ADS-B
04:21AM 52.1169 -5.6908 98° East 547 629 35,000  Level FlightAware ADS-B
04:22AM 52.1062 -5.5685 98° East 549 632 35,000  Level FlightAware ADS-B
04:22AM 52.0956 -5.4490 98° East 549 632 35,000  Level FlightAware ADS-B (EPBY / BZG)
04:23AM 52.0845 -5.3240 98° East 546 628 35,000  Level FlightAware ADS-B (EPBY / BZG)
04:23AM 52.0758 -5.2286 98° East 547 629 35,000  Level FlightAware ADS-B (EPBY / BZG)
04:24AM 52.0627 -5.0843 98° East 547 629 35,000  Level FlightAware ADS-B (EPBY / BZG)
04:24AM 52.0509 -4.9568 99° East 542 624 35,000  Level FlightAware ADS-B (EGCW)
04:24AM 52.0498 -4.9448 99° East 542 624 35,000  Level FlightAware ADS-B
04:25AM 52.0420 -4.8593 98° East 538 619 35,000  Level FlightAware ADS-B
04:25AM 52.0309 -4.7392 98° East 538 619 35,000  Level FlightAware ADS-B
04:25AM 52.0298 -4.7272 98° East 537 618 35,000  Level FlightAware ADS-B
04:26AM 52.0197 -4.6181 99° East 539 620 35,000  Level FlightAware ADS-B
04:26AM 52.0182 -4.6022 99° East 541 623 35,000  Level FlightAware ADS-B (EPBY / BZG)
04:26AM 52.0072 -4.4867 99° East 542 624 35,000  Level FlightAware ADS-B (EPBY / BZG)
04:26AM 52.0031 -4.4435 99° East 542 624 35,000  Level FlightAware ADS-B
04:27AM 51.9948 -4.3573 99° East 539 620 35,000  Level FlightAware ADS-B (EGDX / DGX)
04:27AM 51.9839 -4.2450 99° East 540 621 35,000  Level FlightAware ADS-B
04:27AM 51.9786 -4.1909 99° East 539 620 35,000  Level FlightAware ADS-B
04:28AM 51.9792 -4.1965 279° West 538 619 35,000  Level FlightAware ADS-B (EPBY / BZG)
04:28AM 51.9665 -4.0678 99° East 538 619 35,000  Level FlightAware ADS-B
04:29AM 51.9526 -3.9282 99° East 537 618 35,000  Level FlightAware ADS-B
04:29AM 51.9564 -3.9655 279° West 537 618 35,000  Level FlightAware ADS-B (EPBY / BZG)
04:29AM 51.9400 -3.8031 99° East 538 619 35,000  Level FlightAware ADS-B
04:29AM 51.9396 -3.7991 100° East 538 619 35,000  Level FlightAware ADS-B (EGDM)
04:30AM 51.9275 -3.6802 99° East 537 618 35,000  Level FlightAware ADS-B
04:30AM 51.9220 -3.6265 99° East 535 616 35,000  Level FlightAware ADS-B
04:30AM 51.9174 -3.5824 100° East 534 615 35,000  Level FlightAware ADS-B
04:30AM 51.9151 -3.5603 100° East 534 615 35,000  Level FlightAware ADS-B
04:30AM 51.9126 -3.5360 99° East 533 613 35,000  Level FlightAware ADS-B
04:30AM 51.9100 -3.5108 100° East 533 613 35,000  Level FlightAware ADS-B
04:31AM 51.9056 -3.4691 100° East 534 615 35,000  Level FlightAware ADS-B
04:31AM 51.9028 -3.4416 99° East 535 616 35,000  Level FlightAware ADS-B
04:31AM 51.9001 -3.4155 100° East 535 616 35,000  Level FlightAware ADS-B (EGDX / DGX)
04:31AM 51.8878 -3.2991 100° East 536 617 35,000  Level FlightAware ADS-B
04:31AM 51.8864 -3.2857 100° East 537 618 35,000  Level FlightAware ADS-B (EGCW)
04:31AM 51.8846 -3.2691 100° East 536 617 35,000  Level FlightAware ADS-B
04:32AM 51.8794 -3.2201 100° East 537 618 35,000  Level FlightAware ADS-B
04:32AM 51.8783 -3.2098 100° East 537 618 35,000  Level FlightAware ADS-B (EGDX / DGX)
04:32AM 51.8743 -3.1726 100° East 539 620 35,000  Level FlightAware ADS-B
04:32AM 51.8662 -3.0967 100° East 537 618 35,000  Level FlightAware ADS-B (EGHH / BOH)
04:32AM 51.8620 -3.0573 100° East 535 616 35,000  Level FlightAware ADS-B (EGHH / BOH)
04:32AM 51.8597 -3.0360 100° East 536 617 35,000  Level FlightAware ADS-B
04:33AM 51.8535 -2.9793 100° East 536 617 35,000  Level FlightAware ADS-B (EGHH / BOH)
04:33AM 51.8486 -2.9344 100° East 535 616 35,000  Level FlightAware ADS-B (EGHH / BOH)
04:33AM 51.8453 -2.9045 100° East 536 617 35,000  Level FlightAware ADS-B
04:33AM 51.8446 -2.8982 100° East 535 616 35,000  Level FlightAware ADS-B (EGHH / BOH)
04:33AM 51.8366 -2.8249 100° East 536 617 35,000  Level FlightAware ADS-B (EGHH / BOH)
04:34AM 51.8301 -2.7659 100° East 536 617 35,000  Level FlightAware ADS-B
04:34AM 51.8257 -2.7257 100° East 535 616 35,000  Level FlightAware ADS-B (EGHH / BOH)
04:34AM 51.8168 -2.6462 100° East 537 618 35,000  Level FlightAware ADS-B
04:34AM 51.8121 -2.6044 100° East 538 619 35,000  Level FlightAware ADS-B
04:35AM 51.8031 -2.5251 100° East 535 616 35,000  Level FlightAware ADS-B
04:35AM 51.7983 -2.4821 100° East 533 613 35,000  Level FlightAware ADS-B
04:35AM 51.7882 -2.3935 100° East 532 612 35,000  Level FlightAware ADS-B
04:35AM 51.7852 -2.3670 100° East 532 612 35,000  Level FlightAware ADS-B
04:36AM 51.7746 -2.2745 100° East 532 612 35,000  Level FlightAware ADS-B
04:36AM 51.7716 -2.2480 100° East 532 612 35,000  Level FlightAware ADS-B (EGDX / DGX)
04:36AM 51.7598 -2.1459 101° East 534 615 35,000  Level FlightAware ADS-B
04:36AM 51.7584 -2.1342 101° East 533 613 35,000  Level FlightAware ADS-B (EGLC / LCY)
04:37AM 51.7458 -2.0267 101° East 533 613 35,000  Level FlightAware ADS-B
04:37AM 51.7479 -2.0454 280° West 533 613 35,000  Level FlightAware ADS-B
04:37AM 51.7315 -1.9058 101° East 535 616 35,000  Level FlightAware ADS-B
04:37AM 51.7299 -1.8925 101° East 535 616 35,000  Level FlightAware ADS-B
04:38AM 51.7167 -1.7815 101° East 536 617 35,000  Level FlightAware ADS-B
04:38AM 51.7154 -1.7705 101° East 536 617 35,000  Level FlightAware ADS-B (EGDM)
04:38AM 51.7081 -1.7095 101° East 536 617 35,000  Level FlightAware ADS-B (EGHH / BOH)
04:38AM 51.7032 -1.6688 101° East 536 617 35,000  Level FlightAware ADS-B (EGHH / BOH)
04:38AM 51.7020 -1.6595 101° East 537 618 35,000  Level FlightAware ADS-B
04:39AM 51.6889 -1.5508 101° East 537 618 35,000  Level FlightAware ADS-B
04:39AM 51.6871 -1.5359 101° East 537 618 35,000  Level FlightAware ADS-B
04:39AM 51.6814 -1.4897 101° East 537 618 35,000  Level FlightAware ADS-B (LSXS)
04:39AM 51.6791 -1.4717 101° East 538 619 35,000  Level FlightAware ADS-B (EGHH / BOH)
04:39AM 51.6725 -1.4174 101° East 540 621 35,000  Level FlightAware ADS-B
04:39AM 51.6712 -1.4064 101° East 539 620 35,000  Level FlightAware ADS-B (EGHH / BOH)
04:39AM 51.6672 -1.3741 101° East 538 619 35,000  Level FlightAware ADS-B
04:40AM 51.6580 -1.2970 101° East 540 621 35,000  Level FlightAware ADS-B
04:40AM 51.6535 -1.2585 101° East 539 620 35,000  Level FlightAware ADS-B (EGLC / LCY)
04:40AM 51.6439 -1.1776 101° East 538 619 35,000  Level FlightAware ADS-B
04:40AM 51.6393 -1.1376 101° East 538 619 35,000  Level FlightAware ADS-B
04:41AM 51.6295 -1.0537 101° East 537 618 35,000  Level FlightAware ADS-B
04:41AM 51.6266 -1.0294 101° East 538 619 35,000  Level FlightAware ADS-B
04:41AM 51.6154 -0.9354 101° East 538 619 35,000  Level FlightAware ADS-B
04:42AM 51.6095 -0.8854 101° East 536 617 35,000  Level FlightAware ADS-B (EGDM)
04:42AM 51.6014 -0.8166 101° East 535 616 35,000  Level FlightAware ADS-B
04:42AM 51.5945 -0.7581 101° East 535 616 35,000  Level FlightAware ADS-B (EGDM)
04:42AM 51.5891 -0.7113 101° East 537 618 35,000  Level FlightAware ADS-B
04:43AM 51.5785 -0.6197 100° East 538 619 35,000  Level FlightAware ADS-B (EGLC / LCY)
04:43AM 51.5753 -0.5915 100° East 538 619 35,000  Level FlightAware ADS-B
04:43AM 51.5722 -0.5641 100° East 537 618 35,000  Level FlightAware ADS-B (EGDM)
04:43AM 51.5677 -0.5250 100° East 537 618 35,000  Level FlightAware ADS-B (EGHH / BOH)
04:43AM 51.5613 -0.4702 101° East 537 618 35,000  Level FlightAware ADS-B
04:44AM 51.5534 -0.4040 101° East 534 615 35,000  Level FlightAware ADS-B
04:44AM 51.5471 -0.3512 101° East 534 615 35,000  Level FlightAware ADS-B
04:44AM 51.5421 -0.3101 101° East 533 613 35,000  Level FlightAware ADS-B (LSXS)
04:44AM 51.5384 -0.2799 101° East 532 612 35,000  Level FlightAware ADS-B (EGHI / SOU)
04:44AM 51.5329 -0.2349 101° East 533 613 35,000  Level FlightAware ADS-B
04:45AM 51.5232 -0.1551 101° East 534 615 35,000  Level FlightAware ADS-B (LSXS)
04:45AM 51.5187 -0.1180 101° East 534 615 35,000  Level FlightAware ADS-B
04:45AM 51.5089 -0.0366 101° East 533 613 35,000  Level FlightAware ADS-B (EGLC / LCY)
04:45AM 51.5038 0.0052 101° East 533 613 35,000  Level FlightAware ADS-B
04:46AM 51.4962 0.0686 101° East 533 613 35,000  Level FlightAware ADS-B (EGLC / LCY)
04:46AM 51.4898 0.1226 101° East 531 611 35,000  Level FlightAware ADS-B
04:46AM 51.4804 0.2021 101° East 531 611 35,000  Level FlightAware ADS-B
04:46AM 51.4758 0.2414 101° East 531 611 35,000  Level FlightAware ADS-B
04:47AM 51.4666 0.3209 101° East 531 611 35,000  Level FlightAware ADS-B
04:47AM 51.4650 0.3340 101° East 531 611 35,000  Level FlightAware ADS-B
04:47AM 51.4619 0.3618 100° East 531 611 35,000  Level FlightAware ADS-B
04:47AM 51.4611 0.3687 101° East 531 611 35,000  Level FlightAware ADS-B
04:47AM 51.4478 0.4843 100° East 530 610 35,000  Level FlightAware ADS-B
04:48AM 51.4428 0.5290 100° East 530 610 35,000  Level FlightAware ADS-B (EGLC / LCY)
04:48AM 51.4381 0.5706 100° East 529 609 35,000  Level FlightAware ADS-B (EGMD / LYX)
04:48AM 51.4348 0.5999 100° East 530 610 35,000  Level FlightAware ADS-B
04:48AM 51.4321 0.6238 100° East 532 612 35,000  Level FlightAware ADS-B
04:48AM 51.4206 0.7227 101° East 532 612 35,000  Level FlightAware ADS-B
04:49AM 51.4182 0.7435 100° East 532 612 35,000  Level FlightAware ADS-B (LSXS)
04:49AM 51.4072 0.8399 100° East 531 611 35,000  Level FlightAware ADS-B
04:49AM 51.4054 0.8553 100° East 531 611 35,000  Level FlightAware ADS-B (EGLC / LCY)
04:49AM 51.3939 0.9570 100° East 530 610 35,000  Level FlightAware ADS-B
04:49AM 51.3934 0.9609 101° East 530 610 35,000  Level FlightAware ADS-B (ZBAA / PEK)
04:50AM 51.3885 1.0048 100° East 529 609 35,000  Level FlightAware ADS-B (EGMD / LYX)
04:50AM 51.3834 1.0511 100° East 529 609 35,000  Level FlightAware ADS-B (EGMD / LYX)
04:50AM 51.3797 1.0842 100° East 530 610 35,000  Level FlightAware ADS-B
04:50AM 51.3756 1.1211 100° East 529 609 35,000  Level FlightAware ADS-B
04:51AM 51.3664 1.2033 100° East 529 609 35,000  Level FlightAware ADS-B
04:51AM 51.3657 1.2102 100° East 528 608 35,000  Level FlightAware ADS-B (EGMD / LYX)
04:51AM 51.3615 1.2479 100° East 529 609 35,000  Level FlightAware ADS-B (EGMD / LYX)
04:51AM 51.3528 1.3249 100° East 531 611 35,000  Level FlightAware ADS-B
04:51AM 51.3479 1.3672 100° East 531 611 35,000  Level FlightAware ADS-B (EGMD / LYX)
04:52AM 51.3387 1.4465 100° East 531 611 35,000  Level FlightAware ADS-B
04:52AM 51.3299 1.5105 102° East 530 610 35,000  Level FlightAware ADS-B (EGLC / LCY)
04:52AM 51.3224 1.5613 103° East 529 609 35,000  Level FlightAware ADS-B
04:52AM 51.3120 1.6322 103° East 526 605 35,000  Level FlightAware ADS-B
04:53AM 51.3047 1.6819 103° East 525 604 35,000  Level FlightAware ADS-B
04:53AM 51.2963 1.7407 103° East 525 604 35,000  Level FlightAware ADS-B
04:53AM 51.2878 1.8003 103° East 525 604 35,000  Level FlightAware ADS-B
04:54AM 51.2735 1.9003 103° East 522 601 35,000  Level FlightAware ADS-B
04:54AM 51.2717 1.9130 103° East 522 601 35,000  Level FlightAware ADS-B
04:54AM 51.2576 2.0115 103° East 519 597 35,000  Level FlightAware ADS-B
04:54AM 51.2547 2.0315 103° East 519 597 35,000  Level FlightAware ADS-B
04:55AM 51.2403 2.1309 103° East 516 594 35,000  Level FlightAware ADS-B (EGMD / LYX)
04:55AM 51.2330 2.1812 103° East 515 593 35,000  Level FlightAware ADS-B
04:55AM 51.2242 2.2417 103° East 515 593 35,000  Level FlightAware ADS-B (EGLF / FAB)
04:55AM 51.2118 2.3263 103° East 514 592 35,000  Level FlightAware ADS-B
04:56AM 51.2028 2.3876 103° East 515 593 35,000  Level FlightAware ADS-B (EGMD / LYX)
04:56AM 51.1954 2.4379 103° East 519 597 35,000  Level FlightAware ADS-B
04:56AM 51.1855 2.5048 103° East 518 596 35,000  Level FlightAware ADS-B (EGMD / LYX)
04:57AM 51.1676 2.6246 103° East 519 597 35,000  Level FlightAware ADS-B (EGMD / LYX)
04:57AM 51.1508 2.7370 103° East 520 598 35,000  Level FlightAware ADS-B (EGMD / LYX)
04:58AM 51.1268 2.8950 104° East 518 596 35,000  Level FlightAware ADS-B (EGLC / LCY)
04:58AM 51.1220 2.9267 104° East 517 595 35,000  Level FlightAware ADS-B (EGLC / LCY)
04:58AM 51.1155 2.9694 104° East 514 592 35,000  Level FlightAware ADS-B (EGMD / LYX)
04:59AM 51.0920 3.1200 104° East 516 594 35,000  Level FlightAware
04:59AM 51.0891 3.1410 104° East 476 548 35,000  Level FlightAware UK
04:59AM 51.0813 3.1913 103° East 518 596 35,000  Level FlightAware ADS-B (EGMD / LYX)
05:00AM 51.0592 3.3331 104° East 520 598 35,000  Level FlightAware ADS-B (EGMD / LYX)
05:01AM 51.0362 3.4795 104° East 515 593 35,000  Level FlightAware ADS-B (EGMD / LYX)
05:01AM 51.0083 3.6555 104° East 507 583 35,000  Level FlightAware ADS-B (EGMD / LYX)
05:02AM 50.9885 3.7784 104° East 470 541 35,000  Level FlightAware UK
05:02AM 50.9880 3.7840 104° East 510 587 35,000  Level FlightAware
05:03AM 50.9670 3.9090 105° East 512 589 35,000  Level FlightAware
05:03AM 50.9390 4.0810 104° East 513 590 35,000  Level FlightAware
05:04AM 50.9032 4.3004 104° East 476 548 35,000  Level FlightAware UK
05:05AM 50.8970 4.3390 104° East 509 586 35,000  Level FlightAware
05:05AM 50.8781 4.4524 104° East 476 548 35,000  Level FlightAware UK
05:05AM 50.8770 4.4600 104° East 509 586 35,000  Level FlightAware
05:06AM 50.8510 4.6110 105° East 506 582 35,000  Level FlightAware
05:07AM 50.8230 4.7800 105° East 500 575 35,000  Level FlightAware
05:07AM 50.7960 4.9380 105° East 501 577 35,000  Level FlightAware
05:08AM 50.7750 5.0590 105° East 503 579 35,000  Level FlightAware
05:09AM 50.7500 5.2020 105° East 504 580 35,000  Level FlightAware
05:09AM 50.7280 5.3260 106° East 506 582 35,000  Level FlightAware
05:10AM 50.7050 5.4550 106° East 508 585 35,000  Level FlightAware
05:10AM 50.6840 5.5780 105° East 506 582 35,000  Level FlightAware
05:12AM 50.6380 5.8310 106° East 507 583 35,000  Level FlightAware
05:12AM 50.6125 5.9714 106° East 510 587 35,000  Level FlightAware ADS-B
05:13AM 50.5943 6.0714 106° East 509 586 35,000  Level FlightAware ADS-B (EDKL)
05:14AM 50.5698 6.2042 106° East 510 587 35,000  Level FlightAware ADS-B
05:14AM 50.5450 6.3378 106° East 505 581 35,000  Level FlightAware ADS-B
05:15AM 50.5276 6.4315 106° East 501 577 35,000  Level FlightAware ADS-B
05:15AM 50.4968 6.5951 106° East 506 582 35,000  Level FlightAware ADS-B
05:16AM 50.4755 6.7074 107° East 511 588 35,000  Level FlightAware ADS-B
05:16AM 50.4544 6.8182 107° East 513 590 35,000  Level FlightAware ADS-B
05:17AM 50.4328 6.9311 107° East 512 589 35,000  Level FlightAware ADS-B
05:17AM 50.4284 6.9544 107° East 511 588 35,000  Level FlightAware ADS-B
05:18AM 50.3891 7.1579 107° East 512 589 35,000  Level FlightAware ADS-B
05:19AM 50.3364 7.4271 107° East 518 596 35,000  Level FlightAware ADS-B
05:20AM 50.3060 7.5790 107° East 519 597 35,000  Level FlightAware
05:21AM 50.2750 7.7350 107° East 515 593 35,000  Level FlightAware
05:21AM 50.2610 7.8700 99° East 519 597 35,000  Level FlightAware
05:22AM 50.2530 8.0130 95° East 516 594 35,000  Level FlightAware
05:23AM 50.2420 8.2150 95° East 520 598 35,000  Level FlightAware
05:24AM 50.2280 8.4780 95° East 515 593 35,000  Level FlightAware
05:25AM 50.2210 8.6000 95° East 503 579 35,000  Level FlightAware
05:25AM 50.2120 8.7470 95° East 511 588 35,000  Level FlightAware
05:26AM 50.2020 8.9070 96° East 514 592 35,000  Level FlightAware
05:26AM 50.1940 9.0340 96° East 514 592 35,000  Level FlightAware
05:27AM 50.1870 9.1470 95° East 513 590 35,000  Level FlightAware
05:28AM 50.1750 9.3340 96° East 504 580 35,000  Level FlightAware
05:29AM 50.1640 9.5010 96° East 509 586 35,000  Level FlightAware
05:29AM 50.1540 9.6610 96° East 506 582 35,000  Level FlightAware
05:30AM 50.1440 9.7970 96° East 506 582 35,000  Level FlightAware
05:31AM 50.1340 9.9420 96° East 508 585 35,000  Level FlightAware
05:31AM 50.1230 10.0890 97° East 517 595 35,000  Level FlightAware
05:32AM 50.1130 10.2330 96° East 526 605 35,000  Level FlightAware
05:33AM 50.1030 10.3600 97° East 524 603 35,000  Level FlightAware
05:33AM 50.0930 10.4990 96° East 520 598 35,000  Level FlightAware
05:34AM 50.0770 10.7140 97° East 519 597 35,000  Level FlightAware
05:35AM 50.0750 10.8630 91° East 525 604 35,000  Level FlightAware
05:35AM 50.0750 10.9840 90° East 524 603 35,000  Level FlightAware
05:36AM 50.0750 11.1040 90° East 522 601 35,000  Level FlightAware
05:37AM 50.0750 11.2670 90° East 521 600 35,000  Level FlightAware
05:37AM 50.0740 11.3890 91° East 522 601 35,000  Level FlightAware
05:38AM 50.0730 11.6370 90° East 523 602 35,000  Level FlightAware
05:39AM 50.0720 11.7840 91° East 524 603 35,000  Level FlightAware
05:40AM 50.0700 11.9440 91° East 531 611 35,000  Level FlightAware
05:40AM 50.0690 12.0900 91° East 536 617 35,000  Level FlightAware
05:41AM 50.0680 12.2230 91° East 538 619 35,000  Level FlightAware
05:42AM 50.0650 12.3840 92° East 536 617 35,000  Level FlightAware
05:42AM 50.0680 12.5180 88° East 533 613 35,000  Level FlightAware
05:43AM 50.0722 12.6612 87° East 538 619 35,000  Level FlightAware ADS-B (LKPR / PRG)
05:43AM 50.0760 12.7980 87° East 539 620 35,000  Level FlightAware
05:44AM 50.0777 12.8797 88° East 541 623 35,000  Level FlightAware ADS-B (LKPR / PRG)
05:44AM 50.0805 12.9957 88° East 544 626 35,000  Level FlightAware ADS-B (LKPR / PRG)
05:45AM 50.0824 13.1362 89° East 546 628 35,000  Level FlightAware ADS-B (LKPR / PRG)
05:45AM 50.0875 13.2780 87° East 552 635 35,000  Level FlightAware ADS-B (LKPR / PRG)
05:46AM 50.0932 13.4613 87° East 548 631 35,000  Level FlightAware ADS-B (LKPR / PRG)
05:47AM 50.0947 13.5634 89° East 548 631 35,000  Level FlightAware ADS-B (LKPR / PRG)
05:47AM 50.0969 13.6964 88° East 547 629 35,000  Level FlightAware ADS-B (LKPR / PRG)
05:48AM 50.0976 13.8414 90° East 544 626 35,000  Level FlightAware ADS-B (LKPR / PRG)
05:48AM 50.0968 13.9665 91° East 545 627 35,000  Level FlightAware ADS-B (LKPR / PRG)
05:49AM 50.0964 14.0805 90° East 544 626 35,000  Level FlightAware ADS-B (LKPR / PRG)
05:49AM 50.0956 14.2517 90° East 546 628 35,000  Level FlightAware ADS-B (LKPR / PRG)
05:50AM 50.0939 14.3786 91° East 551 634 35,000  Level FlightAware ADS-B (LKPR / PRG)
05:51AM 50.0864 14.6083 93° East 552 635 35,000  Level FlightAware ADS-B (LKPR / PRG)
05:52AM 50.0820 14.7360 93° East 537 618 35,000  Level FlightAware
05:52AM 50.0780 14.8910 92° East 516 594 35,000  Level FlightAware
05:53AM 50.0730 15.0190 93° East 522 601 35,000  Level FlightAware
05:54AM 50.0670 15.1820 93° East 534 615 35,000  Level FlightAware
05:54AM 50.0610 15.3520 93° East 535 616 35,000  Level FlightAware
05:55AM 50.0560 15.5030 93° East 533 613 35,000  Level FlightAware
05:56AM 50.0500 15.6580 93° East 534 615 35,000  Level FlightAware
05:56AM 50.0430 15.8190 94° East 537 618 35,000  Level FlightAware
05:57AM 50.0370 15.9640 94° East 543 625 35,000  Level FlightAware
05:58AM 50.0300 16.1430 93° East 545 627 35,000  Level FlightAware
05:58AM 50.0250 16.2520 94° East 542 624 35,000  Level FlightAware
05:59AM 50.0120 16.5350 94° East 531 611 35,000  Level FlightAware
06:00AM 50.0050 16.6730 94° East 531 611 35,000  Level FlightAware
06:01AM 49.9980 16.8350 94° East 535 616 35,000  Level FlightAware
06:02AM 49.9880 17.0270 95° East 539 620 35,000  Level FlightAware
06:02AM 49.9800 17.1770 95° East 538 619 35,000  Level FlightAware
06:03AM 49.9720 17.3330 94° East 536 617 35,000  Level FlightAware
06:04AM 49.9600 17.5570 95° East 536 617 35,000  Level FlightAware
06:05AM 49.9450 17.8030 95° East 539 620 35,000  Level FlightAware
06:06AM 49.9370 17.9520 95° East 543 625 35,000  Level FlightAware
06:06AM 49.9310 18.0940 94° East 550 633 35,000  Level FlightAware
06:07AM 49.9330 18.2270 89° East 554 638 35,000  Level FlightAware
06:08AM 49.9360 18.4850 89° East 556 640 35,000 660 Level FlightAware
06:09AM 49.9370 18.6570 89° East 548 631 36,200 1,140 Climbing FlightAware
06:09AM 49.9390 18.8130 89° East 549 632 36,600 600 Climbing FlightAware
06:10AM 49.9400 18.9560 89° East 546 628 37,000 300 Climbing FlightAware
06:10AM 49.9400 19.1150 90° East 538 619 37,000  Level FlightAware
06:11AM 49.9410 19.3480 90° East 541 623 37,000  Level FlightAware
06:12AM 49.9410 19.5110 90° East 544 626 37,000  Level FlightAware
06:13AM 49.9410 19.7310 90° East 544 626 37,000  Level FlightAware
06:14AM 49.9400 19.8870 91° East 542 624 37,000  Level FlightAware
06:15AM 49.9400 20.0540 90° East 541 623 37,000  Level FlightAware
06:15AM 49.9390 20.2190 90° East 538 619 37,000  Level FlightAware
06:16AM 49.9370 20.4800 91° East 537 618 37,000  Level FlightAware
06:17AM 49.9350 20.6600 91° East 534 615 37,000  Level FlightAware
06:18AM 49.9340 20.8040 91° East 536 617 37,000  Level FlightAware
06:18AM 49.9330 20.9400 91° East 533 613 37,000  Level FlightAware
06:19AM 49.9310 21.0930 91° East 534 615 37,000  Level FlightAware
06:20AM 49.9290 21.2360 91° East 537 618 37,000  Level FlightAware
06:20AM 49.9270 21.3440 92° East 537 618 37,000  Level FlightAware
06:21AM 49.9230 21.6190 91° East 535 616 37,000  Level FlightAware
06:22AM 49.9200 21.7670 92° East 532 612 37,000  Level FlightAware
06:23AM 49.9170 21.9130 92° East 531 611 37,000  Level FlightAware
06:23AM 49.9130 22.0820 92° East 532 612 37,000  Level FlightAware
06:24AM 49.9110 22.2050 91° East 533 613 37,000  Level FlightAware
06:24AM 49.9080 22.3260 92° East 532 612 37,000  Level FlightAware
06:25AM 49.9040 22.4920 92° East 529 609 37,000  Level FlightAware
06:26AM 49.9010 22.5960 93° East 525 604 37,000  Level FlightAware
06:26AM 49.8970 22.7450 92° East 525 604 37,000  Level FlightAware
06:27AM 49.8930 22.9120 92° East 526 605 37,000  Level FlightAware
06:28AM 49.8790 23.0510 99° East 522 601 37,000  Level FlightAware
06:28AM 49.8600 23.1930 102° East 522 601 37,000  Level FlightAware
06:29AM 49.8410 23.3450 101° East 521 600 37,000  Level FlightAware
06:29AM 49.8260 23.4570 102° East 521 600 37,000  Level FlightAware
06:30AM 49.8060 23.6030 102° East 517 595 37,000  Level FlightAware
06:31AM 49.7870 23.7460 102° East 515 593 37,000  Level FlightAware
06:31AM 49.7680 23.8830 102° East 515 593 37,000  Level FlightAware
06:32AM 49.7500 24.0140 102° East 517 595 37,000  Level FlightAware
06:33AM 49.7300 24.1600 102° East 517 595 37,000  Level FlightAware
06:34AM 49.6920 24.4270 102° East 518 596 37,000  Level FlightAware
06:34AM 49.6750 24.5460 102° East 515 593 37,000  Level FlightAware
06:35AM 49.6560 24.6730 103° East 514 592 37,000  Level FlightAware
06:36AM 49.6410 24.7780 102° East 515 593 37,000  Level FlightAware
06:36AM 49.6230 24.8990 103° East 516 594 37,000  Level FlightAware
06:37AM 49.6000 25.0560 103° East 512 589 37,000  Level FlightAware
06:38AM 49.5760 25.2220 103° East 507 583 37,000  Level FlightAware
06:39AM 49.5370 25.4730 103° East 502 578 37,000  Level FlightAware
06:40AM 49.5170 25.6040 103° East 505 581 37,000  Level FlightAware
06:40AM 49.5000 25.7150 103° East 506 582 37,000  Level FlightAware
06:41AM 49.4590 25.9800 103° East 505 581 37,000  Level FlightAware
06:42AM 49.4400 26.1010 104° East 505 581 37,000  Level FlightAware
06:43AM 49.4140 26.2600 104° East 507 583 37,000  Level FlightAware
06:43AM 49.3910 26.4040 104° East 506 582 37,000  Level FlightAware
06:44AM 49.3770 26.4930 104° East 503 579 37,000  Level FlightAware
06:45AM 49.3510 26.6530 104° East 503 579 37,000  Level FlightAware
06:45AM 49.3270 26.7930 105° East 503 579 37,000  Level FlightAware
06:46AM 49.3080 26.9130 104° East 500 575 37,000  Level FlightAware
06:47AM 49.2800 27.0750 105° East 500 575 37,000  Level FlightAware
06:47AM 49.2540 27.2310 104° East 503 579 37,000  Level FlightAware
06:48AM 49.2390 27.3180 105° East 503 579 37,000  Level FlightAware
06:48AM 49.2180 27.4390 105° East 503 579 37,000  Level FlightAware
06:49AM 49.2000 27.5470 104° East 504 580 37,000  Level FlightAware
06:50AM 49.1760 27.6850 105° East 507 583 37,000  Level FlightAware
06:50AM 49.1550 27.8340 102° East 511 588 37,000  Level FlightAware
06:51AM 49.1440 27.9360 99° East 510 587 37,000  Level FlightAware
06:51AM 49.1300 28.0760 99° East 510 587 37,000  Level FlightAware
06:52AM 49.1140 28.2190 100° East 508 585 37,000  Level FlightAware
06:53AM 49.0990 28.3450 100° East 507 583 37,000  Level FlightAware
06:53AM 49.0860 28.4570 100° East 506 582 37,000  Level FlightAware
06:54AM 49.0620 28.6670 100° East 508 585 37,000  Level FlightAware
06:55AM 49.0410 28.8370 101° East 508 585 37,000  Level FlightAware
06:56AM 49.0270 28.9550 100° East 507 583 37,000  Level FlightAware
06:56AM 49.0130 29.0750 100° East 506 582 37,000  Level FlightAware
06:57AM 48.9940 29.2290 101° East 507 583 37,000  Level FlightAware
06:57AM 48.9770 29.3680 101° East 507 583 37,000  Level FlightAware
06:58AM 48.9590 29.5100 101° East 507 583 37,000  Level FlightAware
06:59AM 48.9420 29.6440 101° East 508 585 37,000  Level FlightAware
06:59AM 48.9250 29.7740 101° East 509 586 37,000  Level FlightAware
07:00AM 48.9060 29.9260 101° East 509 586 37,000  Level FlightAware
07:01AM 48.8910 30.0400 101° East 509 586 37,000  Level FlightAware
07:01AM 48.8740 30.1660 102° East 509 586 37,000  Level FlightAware
07:02AM 48.8530 30.3210 102° East 510 587 37,000  Level FlightAware
07:03AM 48.8390 30.4320 101° East 508 585 37,000  Level FlightAware
07:03AM 48.8240 30.5390 102° East 507 583 37,000  Level FlightAware
07:04AM 48.8030 30.6910 102° East 505 581 37,000  Level FlightAware
07:05AM 48.7800 30.8610 102° East 506 582 37,000  Level FlightAware
07:05AM 48.7630 30.9840 102° East 505 581 37,000  Level FlightAware
07:06AM 48.7440 31.1170 102° East 505 581 37,000  Level FlightAware
07:07AM 48.7240 31.2610 102° East 504 580 37,000  Level FlightAware
07:08AM 48.6910 31.4880 102° East 500 575 37,000  Level FlightAware
07:08AM 48.6740 31.6070 102° East 500 575 37,000  Level FlightAware
07:09AM 48.6560 31.7290 103° East 501 577 37,000  Level FlightAware
07:09AM 48.6380 31.8500 103° East 499 574 37,000  Level FlightAware
07:10AM 48.6180 31.9880 102° East 498 573 37,000  Level FlightAware
07:11AM 48.6060 32.0680 103° East 499 574 37,000  Level FlightAware
07:11AM 48.5800 32.2360 103° East 499 574 37,000  Level FlightAware
07:12AM 48.5580 32.3840 103° East 501 577 37,000  Level FlightAware
07:13AM 48.5410 32.4960 103° East 501 577 37,000  Level FlightAware
07:14AM 48.5100 32.7010 103° East 505 581 37,000  Level FlightAware
07:14AM 48.4890 32.8560 101° East 507 583 37,000  Level FlightAware
07:15AM 48.4750 32.9580 102° East 507 583 37,000  Level FlightAware
07:16AM 48.4550 33.0980 102° East 508 585 37,000  Level FlightAware
07:16AM 48.4410 33.1980 102° East 510 587 37,000  Level FlightAware
07:17AM 48.4180 33.3570 102° East 507 583 37,000  Level FlightAware
07:17AM 48.4010 33.4750 102° East 506 582 37,000  Level FlightAware
07:18AM 48.3810 33.6150 102° East 505 581 37,000  Level FlightAware
07:19AM 48.3610 33.7510 102° East 505 581 37,000  Level FlightAware
07:19AM 48.3460 33.8500 103° East 504 580 37,000  Level FlightAware
07:20AM 48.3300 33.9540 103° East 505 581 37,000  Level FlightAware
07:20AM 48.3120 34.0750 103° East 505 581 37,000  Level FlightAware
07:22AM 48.2740 34.3280 103° East 503 579 37,000  Level FlightAware
07:22AM 48.2470 34.5000 103° East 503 579 37,000  Level FlightAware
07:23AM 48.2240 34.6470 103° East 502 578 37,000  Level FlightAware
07:24AM 48.2030 34.7840 103° East 502 578 37,000  Level FlightAware
07:24AM 48.1880 34.8770 104° East 501 577 37,000  Level FlightAware
07:25AM 48.1660 35.0130 104° East 501 577 37,000  Level FlightAware
07:26AM 48.1400 35.1780 103° East 505 581 37,000  Level FlightAware
07:27AM 48.0990 35.4300 104° East 504 580 37,000  Level FlightAware
07:28AM 48.0780 35.5540 104° East 503 579 37,000  Level FlightAware
07:28AM 48.0580 35.6780 104° East 503 579 37,000  Level FlightAware
07:29AM 48.0350 35.8120 104° East 503 579 37,000  Level FlightAware
07:29AM 48.0150 35.9330 104° East 505 581 37,000  Level FlightAware
07:30AM 47.9980 36.0340 104° East 504 580 37,000  Level FlightAware
07:31AM 47.9740 36.1740 104° East 502 578 37,000  Level FlightAware
07:31AM 47.9500 36.2950 106° East 501 577 37,000  Level FlightAware
07:32AM 47.9240 36.4150 108° East 504 580 37,000  Level FlightAware
07:32AM 47.9000 36.5300 107° East 502 578 37,000  Level FlightAware
07:33AM 47.8740 36.6500 108° East 500 575 37,000  Level FlightAware
07:34AM 47.8200 36.9000 108° East 498 573 37,000  Level FlightAware
07:35AM 47.7970 37.0050 108° East 497 572 37,000  Level FlightAware
07:35AM 47.7690 37.1310 108° East 497 572 37,000  Level FlightAware
07:36AM 47.7440 37.2490 107° East 497 572 37,000  Level FlightAware
07:37AM 47.7240 37.3650 104° East 496 571 37,000  Level FlightAware
07:37AM 47.7060 37.4710 104° East 495 570 37,000  Level FlightAware
07:38AM 47.6810 37.6140 105° East 494 568 37,000  Level FlightAware
07:39AM 47.6590 37.7390 105° East 494 568 37,000  Level FlightAware
07:39AM 47.6370 37.8580 105° East 492 566 37,000  Level FlightAware
07:40AM 47.6190 37.9600 105° East 491 565 37,000  Level FlightAware
07:41AM 47.5880 38.1300 105° East 492 566 37,000  Level FlightAware
07:41AM 47.5620 38.2760 105° East 495 570 37,000  Level FlightAware
07:42AM 47.5380 38.4030 106° East 492 566 37,000  Level FlightAware
07:43AM 47.5170 38.5070 107° East 492 566 37,000  Level FlightAware
07:43AM 47.4960 38.6120 106° East 492 566 37,000  Level FlightAware
07:44AM 47.4740 38.7250 106° East 492 566 37,000 60 Level FlightAware
07:44AM 47.4530 38.8310 106° East 492 566 37,100 360 Climbing FlightAware
07:45AM 47.4250 38.9700 107° East 488 562 37,500 480 Climbing FlightAware
07:46AM 47.3970 39.1070 107° East 492 566 37,800 480 Climbing FlightAware
07:46AM 47.3710 39.2380 106° East 498 573 38,200 540 Climbing FlightAware
07:48AM 47.3200 39.4840 107° East 489 563 38,800 480 Climbing FlightAware
07:48AM 47.3100 39.5330 107° East 486 559 39,000 240 Climbing FlightAware
07:49AM 47.2850 39.6580 106° East 491 565 39,100  Climbing FlightAware
07:49AM 47.2450 39.8460 107° East 489 563 39,000 -60 Descending FlightAware
07:50AM 47.2140 40.0050 106° East 489 563 39,000  Level FlightAware
07:51AM 47.1940 40.1030 107° East 488 562 39,000  Level FlightAware
07:51AM 47.1720 40.2150 106° East 489 563 39,000  Level FlightAware
07:52AM 47.1470 40.3370 107° East 489 563 39,000  Level FlightAware
07:53AM 47.1140 40.5000 107° East 487 560 39,000  Level FlightAware
07:54AM 47.0920 40.5990 108° East 486 559 39,000  Level FlightAware
07:54AM 47.0630 40.7330 108° East 485 558 39,000  Level FlightAware
07:55AM 47.0310 40.8780 108° East 484 557 39,000  Level FlightAware
07:56AM 47.0040 41.0030 108° East 484 557 39,000  Level FlightAware
07:56AM 46.9760 41.1310 108° East 484 557 39,000  Level FlightAware
07:57AM 46.9420 41.2850 108° East 484 557 39,000  Level FlightAware
07:58AM 46.9120 41.4190 108° East 488 562 39,000  Level FlightAware
07:58AM 46.8900 41.5160 108° East 489 563 39,000  Level FlightAware
07:59AM 46.8680 41.6140 108° East 491 565 39,000  Level FlightAware
07:59AM 46.8430 41.7220 109° East 489 563 39,000  Level FlightAware
08:00AM 46.8180 41.8330 108° East 490 564 39,000  Level FlightAware
08:01AM 46.7930 41.9430 108° East 491 565 39,000  Level FlightAware
08:01AM 46.7730 42.0310 108° East 492 566 39,000  Level FlightAware
08:02AM 46.7450 42.1500 109° East 492 566 39,000  Level FlightAware
08:02AM 46.7180 42.2700 108° East 492 566 39,000  Level FlightAware
08:03AM 46.7000 42.3490 108° East 492 566 39,000  Level FlightAware
08:03AM 46.6720 42.4690 109° East 492 566 39,000  Level FlightAware
08:04AM 46.6330 42.6250 110° East 494 568 39,000  Level FlightAware
08:05AM 46.6060 42.7400 109° East 494 568 39,000  Level FlightAware
08:05AM 46.5820 42.8390 109° East 495 570 39,000  Level FlightAware
08:06AM 46.5480 42.9820 109° East 494 568 39,000  Level FlightAware
08:07AM 46.5240 43.0790 110° East 492 566 39,000  Level FlightAware
08:07AM 46.4970 43.1940 109° East 490 564 39,000  Level FlightAware
08:08AM 46.4500 43.3830 110° East 490 564 39,000  Level FlightAware
08:09AM 46.3950 43.6090 109° East 497 572 39,000  Level FlightAware
08:10AM 46.3670 43.7180 110° East 499 574 39,000  Level FlightAware
08:11AM 46.3210 43.9030 110° East 496 571 39,000  Level FlightAware
08:12AM 46.2870 44.0390 110° East 495 570 39,000  Level FlightAware
08:12AM 46.2700 44.1050 110° East 495 570 39,000  Level FlightAware
08:13AM 46.2380 44.2330 110° East 495 570 39,000  Level FlightAware
08:14AM 46.2060 44.3570 110° East 498 573 39,000  Level FlightAware
08:14AM 46.1780 44.4680 110° East 497 572 39,000  Level FlightAware
08:15AM 46.1520 44.5660 111° Southeast 495 570 39,000  Level FlightAware
08:15AM 46.1150 44.7110 110° East 491 565 39,000  Level FlightAware
08:16AM 46.0970 44.7770 111° Southeast 491 565 39,000  Level FlightAware
08:17AM 46.0580 44.9260 111° Southeast 495 570 39,000  Level FlightAware
08:17AM 46.0220 45.0640 111° Southeast 493 567 39,000  Level FlightAware
08:18AM 45.9970 45.1590 111° Southeast 494 568 39,000  Level FlightAware
08:19AM 45.9640 45.2820 111° Southeast 495 570 39,000  Level FlightAware
08:19AM 45.9430 45.3610 111° Southeast 493 567 39,000  Level FlightAware
08:20AM 45.9170 45.4610 110° East 494 568 39,000  Level FlightAware
08:20AM 45.8740 45.6190 111° Southeast 496 571 39,000  Level FlightAware
08:21AM 45.8520 45.7020 111° Southeast 497 572 39,000  Level FlightAware
08:21AM 45.8270 45.7960 111° Southeast 497 572 39,000  Level FlightAware
08:23AM 45.7590 46.0400 112° Southeast 498 573 39,000  Level FlightAware
08:23AM 45.7340 46.1330 111° Southeast 497 572 39,000  Level FlightAware
08:24AM 45.6920 46.2850 112° Southeast 495 570 39,000  Level FlightAware
08:25AM 45.6610 46.3950 112° Southeast 495 570 39,000  Level FlightAware
08:25AM 45.6260 46.5220 111° Southeast 495 570 39,000  Level FlightAware
08:27AM 45.5630 46.7440 112° Southeast 491 565 39,000  Level FlightAware
08:27AM 45.5300 46.8630 112° Southeast 492 566 39,000  Level FlightAware
08:28AM 45.5110 46.9290 112° Southeast 492 566 39,000  Level FlightAware
08:28AM 45.4740 47.0570 112° Southeast 492 566 39,000  Level FlightAware
08:29AM 45.4340 47.1960 112° Southeast 492 566 39,000  Level FlightAware
08:29AM 45.4140 47.2660 112° Southeast 495 570 39,000  Level FlightAware
08:30AM 45.3750 47.4000 112° Southeast 496 571 39,000  Level FlightAware
08:31AM 45.3410 47.5200 112° Southeast 495 570 39,000  Level FlightAware
08:31AM 45.3120 47.6160 113° Southeast 495 570 39,000  Level FlightAware
08:32AM 45.2670 47.7730 112° Southeast 497 572 39,000  Level FlightAware
08:33AM 45.2380 47.8710 113° Southeast 497 572 39,000  Level FlightAware
08:33AM 45.2130 47.9520 114° Southeast 496 571 39,000  Level FlightAware
08:34AM 45.1780 48.0700 113° Southeast 495 570 39,000  Level FlightAware
08:34AM 45.1490 48.1690 113° Southeast 496 571 39,000  Level FlightAware
08:35AM 45.1150 48.2820 113° Southeast 497 572 39,000  Level FlightAware
08:36AM 45.0820 48.3900 113° Southeast 499 574 39,000  Level FlightAware
08:36AM 45.0500 48.4950 113° Southeast 500 575 39,000  Level FlightAware
08:37AM 45.0150 48.6130 113° Southeast 501 577 39,000  Level FlightAware
08:38AM 44.9810 48.7220 114° Southeast 501 577 39,000  Level FlightAware
08:38AM 44.9480 48.8300 113° Southeast 500 575 39,000  Level FlightAware
08:39AM 44.9240 48.9100 113° Southeast 499 574 39,000  Level FlightAware
08:39AM 44.8810 49.0480 114° Southeast 497 572 39,000  Level FlightAware
08:40AM 44.8510 49.1460 113° Southeast 497 572 39,000  Level FlightAware
08:40AM 44.8200 49.2460 114° Southeast 500 575 39,000  Level FlightAware
08:41AM 44.7780 49.3780 114° Southeast 498 573 39,000  Level FlightAware
08:42AM 44.7390 49.4890 116° Southeast 492 566 39,000  Level FlightAware
08:43AM 44.6800 49.6060 125° Southeast 491 565 39,000  Level FlightAware
08:43AM 44.6300 49.7020 126° Southeast 494 568 39,000  Level FlightAware
08:44AM 44.5860 49.7850 127° Southeast 493 567 39,000  Level FlightAware
08:45AM 44.5250 49.8990 127° Southeast 494 568 39,000  Level FlightAware
08:45AM 44.4780 49.9860 127° Southeast 494 568 39,000  Level FlightAware
08:46AM 44.4060 50.1170 128° Southeast 498 573 39,000  Level FlightAware
08:47AM 44.3550 50.2110 127° Southeast 497 572 39,000  Level FlightAware
08:47AM 44.3030 50.3050 128° Southeast 496 571 39,000  Level FlightAware
08:48AM 44.2530 50.3950 128° Southeast 497 572 39,000  Level FlightAware
08:48AM 44.2020 50.4880 127° Southeast 494 568 39,000  Level FlightAware
08:49AM 44.1370 50.6050 128° Southeast 494 568 39,000  Level FlightAware
08:50AM 44.1070 50.6590 128° Southeast 494 568 39,000  Level FlightAware
08:50AM 44.0560 50.7500 128° Southeast 492 566 39,000  Level FlightAware
08:51AM 43.9950 50.8590 128° Southeast 496 571 39,000  Level FlightAware
08:51AM 43.9530 50.9350 127° Southeast 496 571 39,000  Level FlightAware
08:52AM 43.9460 50.9470 129° Southeast 234 269 39,000  Level FlightAware
08:53AM 43.9170 50.9970 129° Southeast 496 571 39,000  Level FlightAware
08:53AM 43.8600 51.1030 127° Southeast 496 571 39,000  Level FlightAware
08:54AM 43.7790 51.2110 136° Southeast 495 570 39,000  Level FlightAware
08:55AM 43.7070 51.3140 134° Southeast 492 566 39,000  Level FlightAware
08:55AM 43.6520 51.3920 134° Southeast 492 566 39,000  Level FlightAware
08:56AM 43.5530 51.5290 135° Southeast 493 567 39,000  Level FlightAware
08:57AM 43.4740 51.6380 135° Southeast 495 570 39,000  Level FlightAware
08:58AM 43.4280 51.7010 135° Southeast 494 568 39,000  Level FlightAware
08:58AM 43.3720 51.7790 135° Southeast 495 570 39,000  Level FlightAware
08:59AM 43.3220 51.8480 135° Southeast 495 570 39,000  Level FlightAware
09:00AM 43.2270 51.9780 135° Southeast 494 568 39,000  Level FlightAware
09:00AM 43.1860 52.0330 136° Southeast 495 570 39,000  Level FlightAware
09:01AM 43.1370 52.1000 135° Southeast 495 570 39,000  Level FlightAware
09:01AM 43.0720 52.1880 135° Southeast 494 568 39,000  Level FlightAware
09:02AM 43.0050 52.2780 135° Southeast 495 570 39,000  Level FlightAware
09:03AM 42.9540 52.3470 135° Southeast 497 572 39,000  Level FlightAware
09:03AM 42.8730 52.4560 135° Southeast 498 573 39,000  Level FlightAware
09:04AM 42.8220 52.5240 136° Southeast 497 572 39,000  Level FlightAware
09:05AM 42.7330 52.6460 135° Southeast 497 572 39,000  Level FlightAware
09:06AM 42.6980 52.6930 135° Southeast 497 572 39,000  Level FlightAware
09:07AM 42.6150 52.8050 135° Southeast 497 572 39,000  Level FlightAware
09:07AM 42.5650 52.8730 135° Southeast 497 572 39,000  Level FlightAware
09:08AM 42.5160 52.9410 134° Southeast 497 572 39,000  Level FlightAware
09:08AM 42.4660 53.0080 135° Southeast 497 572 39,000  Level FlightAware
09:09AM 42.4160 53.0750 135° Southeast 497 572 39,000  Level FlightAware
09:09AM 42.3830 53.1200 135° Southeast 497 572 39,000  Level FlightAware
09:10AM 42.3180 53.2080 135° Southeast 497 572 39,000  Level FlightAware
09:11AM 42.2520 53.2980 135° Southeast 497 572 39,000  Level FlightAware
09:12AM 42.1800 53.3950 135° Southeast 497 572 39,000  Level FlightAware
09:12AM 42.1300 53.4620 135° Southeast 497 572 39,000  Level FlightAware
09:13AM 42.0940 53.5100 135° Southeast 497 572 39,000  Level FlightAware
09:13AM 42.0430 53.5790 135° Southeast 497 572 39,000  Level FlightAware
09:14AM 41.9750 53.6700 135° Southeast 497 572 39,000  Level FlightAware
09:17AM 41.8368 54.0173 118° Southeast  Level Estimated
09:18AM 41.7746 54.1722 118° Southeast  Level Estimated
09:19AM 41.7122 54.3270 118° Southeast  Level Estimated
09:20AM 41.6496 54.4813 118° Southeast  Level Estimated
09:21AM 41.5868 54.6354 119° Southeast  Level Estimated
09:22AM 41.5237 54.7892 119° Southeast  Level Estimated
09:23AM 41.4605 54.9427 119° Southeast  Level Estimated
09:24AM 41.3970 55.0960 119° Southeast  Level Estimated
09:25AM 41.3334 55.2489 119° Southeast  Level Estimated
09:26AM 41.2696 55.4015 119° Southeast  Level Estimated
09:27AM 41.2055 55.5537 119° Southeast  Level Estimated
09:28AM 41.1413 55.7057 119° Southeast  Level Estimated
09:29AM 41.0768 55.8574 119° Southeast  Level Estimated
09:30AM 41.0121 56.0089 119° Southeast  Level Estimated
09:31AM 40.9473 56.1600 120° Southeast  Level Estimated
09:32AM 40.8823 56.3108 120° Southeast  Level Estimated
09:33AM 40.8170 56.4613 120° Southeast  Level Estimated
09:34AM 40.7516 56.6115 120° Southeast  Level Estimated
09:35AM 40.6860 56.7614 120° Southeast  Level Estimated
09:36AM 40.6202 56.9111 120° Southeast  Level Estimated
09:37AM 40.5541 57.0604 120° Southeast  Level Estimated
09:38AM 40.4879 57.2094 120° Southeast  Level Estimated
09:39AM 40.4215 57.3582 120° Southeast  Level Estimated
09:40AM 40.3549 57.5066 120° Southeast  Level Estimated
09:41AM 40.2882 57.6548 121° Southeast  Level Estimated
09:42AM 40.2212 57.8027 121° Southeast  Level Estimated
09:43AM 40.1541 57.9502 121° Southeast  Level Estimated
09:44AM 40.0867 58.0975 121° Southeast  Level Estimated
09:45AM 40.0192 58.2445 121° Southeast  Level Estimated
09:46AM 39.9515 58.3912 121° Southeast  Level Estimated
09:47AM 39.8836 58.5376 121° Southeast  Level Estimated
09:48AM 39.8155 58.6837 121° Southeast  Level Estimated
09:49AM 39.7473 58.8296 121° Southeast  Level Estimated
09:50AM 39.6788 58.9751 121° Southeast  Level Estimated
09:51AM 39.6102 59.1203 121° Southeast  Level Estimated
09:52AM 39.5414 59.2653 122° Southeast  Level Estimated
09:53AM 39.4724 59.4100 122° Southeast  Level Estimated
09:54AM 39.4033 59.5544 122° Southeast  Level Estimated
09:55AM 39.3339 59.6985 122° Southeast  Level Estimated
09:56AM 39.2644 59.8423 122° Southeast  Level Estimated
09:57AM 39.1947 59.9858 122° Southeast  Level Estimated
09:58AM 39.1248 60.1290 122° Southeast  Level Estimated
09:59AM 39.0548 60.2720 122° Southeast  Level Estimated
10:00AM 38.9846 60.4147 122° Southeast  Level Estimated
10:01AM 38.9142 60.5571 122° Southeast  Level Estimated
10:02AM 38.8436 60.6992 122° Southeast  Level Estimated
10:03AM 38.7729 60.8410 123° Southeast  Level Estimated
10:04AM 38.7020 60.9826 123° Southeast  Level Estimated
10:05AM 38.6309 61.1238 123° Southeast  Level Estimated
10:06AM 38.5596 61.2648 123° Southeast  Level Estimated
10:07AM 38.4882 61.4055 123° Southeast  Level Estimated
10:08AM 38.4166 61.5460 123° Southeast  Level Estimated
10:09AM 38.3449 61.6861 123° Southeast  Level Estimated
10:10AM 38.2729 61.8260 123° Southeast  Level Estimated
10:11AM 38.2009 61.9656 123° Southeast  Level Estimated
10:12AM 38.1286 62.1049 123° Southeast  Level Estimated
10:13AM 38.0562 62.2439 123° Southeast  Level Estimated
10:14AM 37.9836 62.3827 124° Southeast  Level Estimated
10:15AM 37.9109 62.5212 124° Southeast  Level Estimated
10:16AM 37.8380 62.6594 124° Southeast  Level Estimated
10:17AM 37.7649 62.7974 124° Southeast  Level Estimated
10:18AM 37.6917 62.9350 124° Southeast  Level Estimated
10:19AM 37.6183 63.0724 124° Southeast  Level Estimated
10:20AM 37.5448 63.2096 124° Southeast  Level Estimated
10:21AM 37.4711 63.3464 124° Southeast  Level Estimated
10:22AM 37.3972 63.4830 124° Southeast  Level Estimated
10:23AM 37.3232 63.6193 124° Southeast  Level Estimated
10:24AM 37.2490 63.7554 124° Southeast  Level Estimated
10:25AM 37.1747 63.8912 124° Southeast  Level Estimated
10:26AM 37.1002 64.0267 125° Southeast  Level Estimated
10:27AM 37.0256 64.1619 125° Southeast  Level Estimated
10:28AM 36.9508 64.2969 125° Southeast  Level Estimated
10:29AM 36.8759 64.4316 125° Southeast  Level Estimated
10:30AM 36.8008 64.5661 125° Southeast  Level Estimated
10:31AM 36.7255 64.7003 125° Southeast  Level Estimated
10:32AM 36.6501 64.8342 125° Southeast  Level Estimated
10:33AM 36.5746 64.9679 125° Southeast  Level Estimated
10:34AM 36.4989 65.1013 125° Southeast  Level Estimated
10:35AM 36.4231 65.2344 125° Southeast  Level Estimated
10:36AM 36.3471 65.3673 125° Southeast  Level Estimated
10:37AM 36.2709 65.4999 125° Southeast  Level Estimated
10:38AM 36.1946 65.6323 126° Southeast  Level Estimated
10:39AM 36.1182 65.7644 126° Southeast  Level Estimated
10:40AM 36.0416 65.8963 126° Southeast  Level Estimated
10:41AM 35.9649 66.0278 126° Southeast  Level Estimated
10:42AM 35.8881 66.1592 126° Southeast  Level Estimated
10:43AM 35.8111 66.2903 126° Southeast  Level Estimated
10:44AM 35.7339 66.4211 126° Southeast  Level Estimated
10:45AM 35.6566 66.5517 126° Southeast  Level Estimated
10:46AM 35.5792 66.6820 126° Southeast  Level Estimated
10:47AM 35.5016 66.8121 126° Southeast  Level Estimated
10:48AM 35.4239 66.9419 126° Southeast  Level Estimated
10:49AM 35.3461 67.0715 126° Southeast  Level Estimated
10:50AM 35.2681 67.2008 126° Southeast  Level Estimated
10:51AM 35.1900 67.3298 126° Southeast  Level Estimated
10:52AM 35.1117 67.4587 127° Southeast  Level Estimated
10:53AM 35.0333 67.5872 127° Southeast  Level Estimated
10:54AM 34.9548 67.7156 127° Southeast  Level Estimated
10:55AM 34.8761 67.8437 127° Southeast  Level Estimated
10:56AM 34.7974 67.9715 127° Southeast  Level Estimated
10:57AM 34.7184 68.0991 127° Southeast  Level Estimated
10:58AM 34.6394 68.2264 127° Southeast  Level Estimated
10:59AM 34.5602 68.3536 127° Southeast  Level Estimated
11:00AM 34.4808 68.4804 127° Southeast  Level Estimated
11:00AM 32.7620 69.5930 127° Southeast 532 612 39,000  Level FlightAware
11:01AM 34.4014 68.6070 127° Southeast  Level Estimated
11:01AM 32.7010 69.6850 128° Southeast 534 615 39,000  Level FlightAware
11:01AM 32.6400 69.7770 128° Southeast 537 618 39,000  Level FlightAware
11:02AM 32.5870 69.8570 128° Southeast 537 618 39,000  Level FlightAware
11:03AM 32.4980 69.9900 128° Southeast 531 611 39,000  Level FlightAware
11:04AM 32.4090 70.1250 128° Southeast 536 617 39,000  Level FlightAware
11:04AM 32.3490 70.2140 129° Southeast 533 613 39,000  Level FlightAware
11:05AM 32.2940 70.3000 127° Southeast 531 611 39,000  Level FlightAware
11:06AM 32.2350 70.3910 127° Southeast 532 612 39,000  Level FlightAware
11:07AM 32.1490 70.5230 128° Southeast 530 610 39,000  Level FlightAware
11:08AM 32.0330 70.7010 128° Southeast 531 611 39,000  Level FlightAware
11:08AM 31.9830 70.7780 127° Southeast 533 613 39,000  Level FlightAware
11:09AM 31.9320 70.8570 127° Southeast 532 612 39,000  Level FlightAware
11:10AM 31.8900 70.9350 122° Southeast 530 610 39,000  Level FlightAware
11:10AM 31.8460 71.0320 118° Southeast 527 606 39,000  Level FlightAware
11:11AM 31.7840 71.1730 117° Southeast 526 605 39,000  Level FlightAware
11:12AM 31.7290 71.2930 118° Southeast 528 608 39,000  Level FlightAware
11:13AM 31.6870 71.3860 118° Southeast 532 612 39,000  Level FlightAware
11:13AM 31.6450 71.4770 118° Southeast 532 612 39,000  Level FlightAware
11:14AM 31.6020 71.5720 118° Southeast 530 610 39,000  Level FlightAware
11:14AM 31.5600 71.6650 118° Southeast 527 606 39,000  Level FlightAware
11:15AM 31.5200 71.7520 118° Southeast 526 605 39,000  Level FlightAware
11:16AM 31.4640 71.8730 118° Southeast 525 604 39,000  Level FlightAware
11:17AM 31.3930 72.0280 118° Southeast 527 606 39,000  Level FlightAware
11:18AM 31.3310 72.1910 114° Southeast 525 604 39,000  Level FlightAware
11:18AM 31.3120 72.2740 105° East 524 603 39,000  Level FlightAware
11:19AM 31.3000 72.3610 99° East 525 604 39,000  Level FlightAware
11:19AM 31.2950 72.4710 93° East 523 602 39,000  Level FlightAware
11:21AM 31.3100 72.6570 85° East 517 595 39,000  Level FlightAware
11:21AM 31.3220 72.7620 82° East 515 593 39,000  Level FlightAware
11:22AM 31.3350 72.8710 82° East 512 589 39,000  Level FlightAware
11:23AM 31.3500 72.9980 82° East 511 588 39,000  Level FlightAware
11:23AM 31.3610 73.1110 83° East 513 590 39,000  Level FlightAware
11:24AM 31.3690 73.2150 85° East 510 587 39,000  Level FlightAware
11:25AM 31.3770 73.3060 84° East 510 587 39,000  Level FlightAware
11:25AM 31.3840 73.3920 85° East 510 587 39,000  Level FlightAware
11:26AM 31.4000 73.5730 84° East 508 585 39,000  Level FlightAware
11:27AM 31.4090 73.6830 84° East 508 585 39,000  Level FlightAware
11:28AM 31.4210 73.8040 83° East 502 578 39,000  Level FlightAware
11:28AM 31.4340 73.9070 82° East 507 583 39,000  Level FlightAware
11:29AM 31.4370 74.0050 88° East 511 588 39,000  Level FlightAware
11:29AM 31.4290 74.1050 95° East 513 590 39,000  Level FlightAware
11:31AM 31.3930 74.2970 102° East 515 593 39,000  Level FlightAware
11:31AM 31.3750 74.3830 104° East 514 592 39,000  Level FlightAware
11:32AM 31.3480 74.4660 111° Southeast 516 594 39,000  Level FlightAware
11:33AM 31.2820 74.6070 119° Southeast 513 590 39,000  Level FlightAware
11:33AM 31.2230 74.6940 128° Southeast 512 589 39,000  Level FlightAware
11:34AM 31.1710 74.7550 135° Southeast 510 587 39,000  Level FlightAware
11:34AM 31.1130 74.8210 136° Southeast 511 588 39,000  Level FlightAware
11:35AM 31.0150 74.9290 137° Southeast 512 589 39,000  Level FlightAware
11:36AM 30.9680 74.9800 137° Southeast 511 588 39,000  Level FlightAware
11:36AM 30.9130 75.0400 137° Southeast 511 588 39,000  Level FlightAware
11:37AM 30.7850 75.1440 145° Southeast 503 579 39,000  Level FlightAware
11:38AM 30.7280 75.1770 154° Southeast 501 577 39,000  Level FlightAware
11:38AM 30.6670 75.2050 158° South 498 573 39,000  Level FlightAware
11:39AM 30.5940 75.2330 162° South 496 571 39,000  Level FlightAware
11:39AM 30.5270 75.2600 161° South 495 570 39,000  Level FlightAware
11:40AM 30.4450 75.2910 162° South 496 571 39,000  Level FlightAware
11:41AM 30.3530 75.3250 162° South 500 575 39,000  Level FlightAware
11:41AM 30.2820 75.3510 162° South 500 575 39,000  Level FlightAware
11:42AM 30.2220 75.3730 162° South 499 574 39,000  Level FlightAware
11:42AM 30.1490 75.3990 163° South 500 575 39,000  Level FlightAware
11:43AM 30.0180 75.4470 162° South 503 579 39,000  Level FlightAware
11:44AM 29.9460 75.4790 159° South 509 586 39,000  Level FlightAware
11:45AM 29.8100 75.5770 148° Southeast 515 593 39,000  Level FlightAware
11:45AM 29.7610 75.6310 136° Southeast 515 593 39,000  Level FlightAware
11:46AM 29.6920 75.7070 136° Southeast 516 594 39,000  Level FlightAware
11:47AM 29.6220 75.7830 137° Southeast 516 594 39,000  Level FlightAware
11:48AM 29.5180 75.8960 137° Southeast 514 592 39,000  Level FlightAware
11:49AM 29.4140 76.0090 137° Southeast 516 594 39,000  Level FlightAware
11:50AM 29.2970 76.1360 137° Southeast 516 594 39,000  Level FlightAware
11:51AM 29.2280 76.2100 137° Southeast 515 593 39,000  Level FlightAware
11:52AM 29.1170 76.3300 137° Southeast 515 593 39,000  Level FlightAware
11:52AM 29.0410 76.4120 137° Southeast 512 589 39,000  Level FlightAware
11:53AM 28.9780 76.4790 137° Southeast 511 588 39,000  Level FlightAware
11:53AM 28.9300 76.5310 137° Southeast 509 586 39,000  Level FlightAware
11:54AM 28.8610 76.6040 137° Southeast 507 583 39,000  Level FlightAware
11:55AM 28.8020 76.6670 137° Southeast 510 587 39,000  Level FlightAware
11:55AM 28.7440 76.7300 136° Southeast 512 589 39,000  Level FlightAware
11:56AM 28.6820 76.7960 137° Southeast 512 589 39,000  Level FlightAware
11:56AM 28.6190 76.8620 137° Southeast 512 589 39,000  Level FlightAware
11:57AM 28.5230 76.9640 137° Southeast 512 589 39,000  Level FlightAware
11:58AM 28.4810 77.0080 137° Southeast 512 589 39,000  Level FlightAware
11:58AM 28.4030 77.0900 137° Southeast 515 593 39,000  Level FlightAware
11:59AM 28.3510 77.1450 137° Southeast 515 593 39,000  Level FlightAware
12:00PM 28.2460 77.2560 137° Southeast 514 592 39,000  Level FlightAware
12:01PM 28.1450 77.3620 137° Southeast 514 592 39,000  Level FlightAware
12:02PM 28.0400 77.4720 137° Southeast 515 593 39,000  Level FlightAware
12:02PM 27.9850 77.5290 138° Southeast 515 593 39,000  Level FlightAware
12:04PM 27.8760 77.6430 137° Southeast 514 592 39,000  Level FlightAware
12:05PM 27.7700 77.7520 138° Southeast 513 590 39,000  Level FlightAware
12:06PM 27.6380 77.8600 144° Southeast 509 586 39,000  Level FlightAware
12:06PM 27.5680 77.9140 146° Southeast 508 585 39,000  Level FlightAware
12:07PM 27.4960 77.9680 146° Southeast 509 586 39,000  Level FlightAware
12:08PM 27.4100 78.0320 147° Southeast 505 581 39,000  Level FlightAware
12:08PM 27.3570 78.0720 146° Southeast 497 572 39,000  Level FlightAware
12:09PM 27.2880 78.1230 147° Southeast 491 565 39,000  Level FlightAware
12:09PM 27.2280 78.1670 147° Southeast 493 567 39,000  Level FlightAware
12:10PM 27.1520 78.2230 147° Southeast 495 570 39,000  Level FlightAware
12:11PM 27.0710 78.2830 147° Southeast 498 573 39,000  Level FlightAware
12:12PM 26.9470 78.3740 147° Southeast 496 571 39,000  Level FlightAware
12:12PM 26.8770 78.4250 147° Southeast 494 568 39,000  Level FlightAware
12:13PM 26.8050 78.4780 147° Southeast 491 565 39,000  Level FlightAware
12:13PM 26.7450 78.5220 147° Southeast 494 568 39,000  Level FlightAware
12:14PM 26.6880 78.5630 147° Southeast 497 572 39,000  Level FlightAware
12:15PM 26.5590 78.6570 147° Southeast 499 574 39,000  Level FlightAware
12:15PM 26.5170 78.6880 147° Southeast 500 575 39,000  Level FlightAware
12:16PM 26.4320 78.7500 147° Southeast 501 577 39,000  Level FlightAware
12:17PM 26.3630 78.8000 147° Southeast 505 581 39,000  Level FlightAware
12:17PM 26.2900 78.8530 147° Southeast 507 583 39,000  Level FlightAware
12:18PM 26.2500 78.8820 147° Southeast 505 581 39,000  Level FlightAware
12:18PM 26.1620 78.9450 147° Southeast 496 571 39,000  Level FlightAware
12:19PM 26.1180 78.9780 146° Southeast 496 571 39,000  Level FlightAware
12:19PM 26.0600 79.0220 146° Southeast 496 571 39,000  Level FlightAware
12:20PM 25.9630 79.0950 146° Southeast 496 571 39,000  Level FlightAware
12:22PM 25.8230 79.2480 135° Southeast 512 589 39,000  Level FlightAware
12:22PM 25.7710 79.3070 134° Southeast 512 589 39,000  Level FlightAware
12:23PM 25.7190 79.3640 135° Southeast 512 589 39,000  Level FlightAware
12:23PM 25.6850 79.4010 136° Southeast 512 589 39,000  Level FlightAware
12:24PM 25.6340 79.4580 135° Southeast 512 589 39,000  Level FlightAware
12:25PM 25.5660 79.5340 135° Southeast 512 589 39,000  Level FlightAware
12:26PM 25.4240 79.6840 136° Southeast 511 588 39,000  Level FlightAware
12:26PM 25.3730 79.7410 135° Southeast 511 588 39,000  Level FlightAware
12:27PM 25.3390 79.7780 135° Southeast 511 588 39,000  Level FlightAware
12:27PM 25.2870 79.8350 135° Southeast 511 588 39,000  Level FlightAware
12:28PM 25.2360 79.8920 135° Southeast 511 588 39,000  Level FlightAware
12:28PM 25.1240 80.0070 137° Southeast 515 593 39,000  Level FlightAware
12:29PM 25.0490 80.0890 135° Southeast 515 593 39,000  Level FlightAware
12:30PM 24.9960 80.1480 135° Southeast 515 593 39,000  Level FlightAware
12:31PM 24.9450 80.2040 135° Southeast 515 593 39,000  Level FlightAware
12:31PM 24.8930 80.2610 135° Southeast 515 593 39,000  Level FlightAware
12:32PM 24.8410 80.3180 135° Southeast 515 593 39,000  Level FlightAware
12:32PM 24.7900 80.3750 135° Southeast 515 593 39,000  Level FlightAware
12:33PM 24.7040 80.4690 135° Southeast 515 593 39,000  Level FlightAware
12:34PM 24.6320 80.5480 135° Southeast 515 593 39,000  Level FlightAware
12:35PM 24.5460 80.6430 135° Southeast 515 593 39,000  Level FlightAware
12:36PM 24.5120 80.6810 135° Southeast 515 593 39,000  Level FlightAware
12:36PM 24.4600 80.7370 136° Southeast 515 593 39,000  Level FlightAware
12:37PM 24.3740 80.8320 135° Southeast 515 593 39,000  Level FlightAware
12:38PM 24.2890 80.9260 135° Southeast 515 593 39,000 180 Level FlightAware
12:41PM 24.0796 81.1774 132° Southeast  Level Estimated
12:42PM 23.9911 81.2834 132° Southeast  Level Estimated
12:43PM 23.9024 81.3893 132° Southeast  Level Estimated
12:44PM 23.8137 81.4950 133° Southeast  Level Estimated
12:45PM 23.7249 81.6005 133° Southeast  Level Estimated
12:46PM 23.6360 81.7060 133° Southeast  Level Estimated
12:47PM 23.5470 81.8112 133° Southeast  Level Estimated
12:47PM 23.2640 81.9630 133° Southeast 488 562 41,000  Level FlightAware
12:48PM 23.1920 82.0380 136° Southeast 488 562 41,000  Level FlightAware
12:49PM 23.1080 82.1260 136° Southeast 488 562 41,000  Level FlightAware
12:50PM 23.0240 82.2210 134° Southeast 495 570 41,000  Level FlightAware
12:51PM 22.9310 82.3440 129° Southeast 498 573 41,000  Level FlightAware
12:51PM 22.8790 82.4140 129° Southeast 499 574 41,000  Level FlightAware
12:52PM 22.8070 82.5090 129° Southeast 498 573 41,000  Level FlightAware
12:53PM 22.7170 82.6280 129° Southeast 496 571 41,000  Level FlightAware
12:54PM 22.6400 82.7290 130° Southeast 495 570 41,000  Level FlightAware
12:55PM 22.5660 82.8280 129° Southeast 495 570 41,000  Level FlightAware
12:56PM 22.5070 82.9060 129° Southeast 495 570 41,000  Level FlightAware
12:56PM 22.4230 83.0120 131° Southeast 497 572 41,000  Level FlightAware
12:57PM 22.3880 83.0570 130° Southeast 499 574 41,000  Level FlightAware
12:58PM 22.3160 83.1520 129° Southeast 500 575 41,000  Level FlightAware
12:59PM 22.2170 83.2810 130° Southeast 497 572 41,000  Level FlightAware
01:00PM 22.1170 83.4100 130° Southeast 491 565 41,000  Level FlightAware
01:00PM 22.0730 83.4690 129° Southeast 489 563 41,000  Level FlightAware
01:01PM 22.0250 83.5310 130° Southeast 487 560 41,000  Level FlightAware
01:01PM 21.9850 83.5840 129° Southeast 488 562 41,000  Level FlightAware
01:02PM 21.9340 83.6500 130° Southeast 485 558 41,000  Level FlightAware
01:03PM 21.8880 83.7110 129° Southeast 484 557 41,000  Level FlightAware
01:03PM 21.8440 83.7670 130° Southeast 488 562 41,000  Level FlightAware
01:04PM 21.7870 83.8420 129° Southeast 486 559 41,000  Level FlightAware
01:05PM 21.7050 83.9480 130° Southeast 480 552 41,000  Level FlightAware
01:06PM 21.6030 84.0800 130° Southeast 481 554 41,000  Level FlightAware
01:06PM 21.5530 84.1450 130° Southeast 481 554 41,000  Level FlightAware
01:07PM 21.5020 84.2110 130° Southeast 482 555 41,000  Level FlightAware
01:07PM 21.4620 84.2630 130° Southeast 482 555 41,000  Level FlightAware
01:08PM 21.3780 84.3710 130° Southeast 484 557 41,000  Level FlightAware
01:09PM 21.3180 84.4480 130° Southeast 487 560 41,000  Level FlightAware
01:10PM 21.2430 84.5440 130° Southeast 485 558 41,000  Level FlightAware
01:11PM 21.1550 84.6580 130° Southeast 485 558 41,000  Level FlightAware
01:12PM 21.1000 84.7280 130° Southeast 485 558 41,000  Level FlightAware
01:12PM 21.0670 84.7710 129° Southeast 487 560 41,000  Level FlightAware
01:13PM 21.0170 84.8340 130° Southeast 489 563 41,000  Level FlightAware
01:14PM 20.9520 84.9190 129° Southeast 489 563 41,000  Level FlightAware
01:14PM 20.9090 84.9770 128° Southeast 489 563 41,000  Level FlightAware
01:15PM 20.8360 85.0730 129° Southeast 489 563 41,000  Level FlightAware
01:16PM 20.7930 85.1300 129° Southeast 489 563 41,000  Level FlightAware
01:16PM 20.7490 85.1880 129° Southeast 489 563 41,000  Level FlightAware
01:17PM 20.7050 85.2460 129° Southeast 489 563 41,000  Level FlightAware
01:18PM 20.6320 85.3430 129° Southeast 489 563 41,000  Level FlightAware
01:19PM 20.5590 85.4390 129° Southeast 489 563 41,000  Level FlightAware
01:20PM 20.5150 85.4960 129° Southeast 489 563 41,000  Level FlightAware
01:21PM 20.4430 85.5920 129° Southeast 489 563 41,000  Level FlightAware
01:22PM 20.2000 85.8660 133° Southeast 480 552 41,000  Level FlightAware
01:23PM 20.1540 85.9220 131° Southeast 480 552 41,000  Level FlightAware
01:23PM 20.1100 85.9760 131° Southeast 480 552 41,000  Level FlightAware
01:24PM 20.0500 86.0490 131° Southeast 480 552 41,000  Level FlightAware
01:25PM 19.9910 86.1220 131° Southeast 480 552 41,000  Level FlightAware
01:26PM 19.9460 86.1760 132° Southeast 480 552 41,000  Level FlightAware
01:26PM 19.8870 86.2490 131° Southeast 480 552 41,000  Level FlightAware
01:27PM 19.8420 86.3040 131° Southeast 480 552 41,000  Level FlightAware
01:28PM 19.7680 86.3950 131° Southeast 480 552 41,000  Level FlightAware
01:30PM 19.5050 86.5850 146° Southeast 470 541 41,000  Level FlightAware
01:30PM 19.4590 86.6350 134° Southeast 470 541 41,000  Level FlightAware
01:31PM 19.4110 86.6880 134° Southeast 470 541 41,000  Level FlightAware
01:32PM 19.3330 86.7740 134° Southeast 470 541 41,000  Level FlightAware
01:33PM 19.2550 86.8600 134° Southeast 470 541 41,000  Level FlightAware
01:34PM 19.1930 86.9270 134° Southeast 470 541 41,000  Level FlightAware
01:35PM 19.1150 87.0130 134° Southeast 470 541 41,000  Level FlightAware
01:36PM 19.0380 87.0970 134° Southeast 470 541 41,000  Level FlightAware
01:36PM 19.0060 87.1330 133° Southeast 470 541 41,000  Level FlightAware
01:37PM 18.9590 87.1830 135° Southeast 470 541 41,000  Level FlightAware
01:38PM 18.8820 87.2670 134° Southeast 470 541 41,000  Level FlightAware
01:38PM 18.8360 87.3180 134° Southeast 470 541 41,000  Level FlightAware
01:41PM 18.6317 87.5334 135° Southeast  Level Estimated
01:42PM 18.5388 87.6311 135° Southeast  Level Estimated
01:43PM 18.4458 87.7288 135° Southeast  Level Estimated
01:44PM 18.3528 87.8263 135° Southeast  Level Estimated
01:45PM 18.2597 87.9237 135° Southeast  Level Estimated
01:46PM 18.1666 88.0210 135° Southeast  Level Estimated
01:47PM 18.0734 88.1182 135° Southeast  Level Estimated
01:48PM 17.9802 88.2154 135° Southeast  Level Estimated
01:49PM 17.8869 88.3124 135° Southeast  Level Estimated
01:50PM 17.7936 88.4093 135° Southeast  Level Estimated
01:51PM 17.7002 88.5061 135° Southeast  Level Estimated
01:52PM 17.6068 88.6028 135° Southeast  Level Estimated
01:53PM 17.5133 88.6994 135° Southeast  Level Estimated
01:54PM 17.4198 88.7959 135° Southeast  Level Estimated
01:55PM 17.3262 88.8923 135° Southeast  Level Estimated
01:56PM 17.2326 88.9886 135° Southeast  Level Estimated
01:57PM 17.1390 89.0848 136° Southeast  Level Estimated
01:58PM 17.0453 89.1809 136° Southeast  Level Estimated
01:59PM 16.9515 89.2769 136° Southeast  Level Estimated
02:00PM 16.8578 89.3729 136° Southeast  Level Estimated
02:01PM 16.7639 89.4687 136° Southeast  Level Estimated
02:02PM 16.6701 89.5644 136° Southeast  Level Estimated
02:03PM 16.5761 89.6601 136° Southeast  Level Estimated
02:04PM 16.4822 89.7556 136° Southeast  Level Estimated
02:05PM 16.3882 89.8511 136° Southeast  Level Estimated
02:06PM 16.2941 89.9464 136° Southeast  Level Estimated
02:07PM 16.2000 90.0417 136° Southeast  Level Estimated
02:08PM 16.1059 90.1369 136° Southeast  Level Estimated
02:09PM 16.0117 90.2319 136° Southeast  Level Estimated
02:10PM 15.9175 90.3270 136° Southeast  Level Estimated
02:11PM 15.8232 90.4219 136° Southeast  Level Estimated
02:12PM 15.7289 90.5167 136° Southeast  Level Estimated
02:13PM 15.6346 90.6114 136° Southeast  Level Estimated
02:14PM 15.5402 90.7060 136° Southeast  Level Estimated
02:15PM 15.4458 90.8006 136° Southeast  Level Estimated
02:16PM 15.3513 90.8951 136° Southeast  Level Estimated
02:17PM 15.2569 90.9895 136° Southeast  Level Estimated
02:18PM 15.1623 91.0838 136° Southeast  Level Estimated
02:19PM 15.0677 91.1780 136° Southeast  Level Estimated
02:20PM 14.9731 91.2721 136° Southeast  Level Estimated
02:21PM 14.8785 91.3662 136° Southeast  Level Estimated
02:22PM 14.7837 91.4601 136° Southeast  Level Estimated
02:23PM 14.6890 91.5540 136° Southeast  Level Estimated
02:24PM 14.5942 91.6478 136° Southeast  Level Estimated
02:25PM 14.4994 91.7415 136° Southeast  Level Estimated
02:26PM 14.4046 91.8352 136° Southeast  Level Estimated
02:27PM 14.3097 91.9287 136° Southeast  Level Estimated
02:28PM 14.2148 92.0222 136° Southeast  Level Estimated
02:29PM 14.1198 92.1156 136° Southeast  Level Estimated
02:30PM 14.0248 92.2090 136° Southeast  Level Estimated
02:31PM 13.9298 92.3022 136° Southeast  Level Estimated
02:32PM 13.8348 92.3954 136° Southeast  Level Estimated
02:33PM 13.7396 92.4885 136° Southeast  Level Estimated
02:34PM 13.6445 92.5815 136° Southeast  Level Estimated
02:35PM 13.5493 92.6745 136° Southeast  Level Estimated
02:36PM 13.4542 92.7673 137° Southeast  Level Estimated
02:37PM 13.3589 92.8601 137° Southeast  Level Estimated
02:38PM 13.2636 92.9529 137° Southeast  Level Estimated
02:39PM 13.1683 93.0455 137° Southeast  Level Estimated
02:40PM 13.0730 93.1381 137° Southeast  Level Estimated
02:41PM 12.9776 93.2306 137° Southeast  Level Estimated
02:42PM 12.8822 93.3230 137° Southeast  Level Estimated
02:43PM 12.7868 93.4154 137° Southeast  Level Estimated
02:44PM 12.6913 93.5077 137° Southeast  Level Estimated
02:45PM 12.5958 93.5999 137° Southeast  Level Estimated
02:46PM 12.5003 93.6921 137° Southeast  Level Estimated
02:47PM 12.4047 93.7842 137° Southeast  Level Estimated
02:48PM 12.3091 93.8762 137° Southeast  Level Estimated
02:49PM 12.2135 93.9682 137° Southeast  Level Estimated
02:50PM 12.1179 94.0601 137° Southeast  Level Estimated
02:51PM 12.0222 94.1519 137° Southeast  Level Estimated
02:52PM 11.9265 94.2437 137° Southeast  Level Estimated
02:53PM 11.8308 94.3354 137° Southeast  Level Estimated
02:54PM 11.7350 94.4270 137° Southeast  Level Estimated
02:55PM 11.6392 94.5186 137° Southeast  Level Estimated
02:56PM 11.5434 94.6101 137° Southeast  Level Estimated
02:57PM 11.4475 94.7015 137° Southeast  Level Estimated
02:58PM 11.3516 94.7929 137° Southeast  Level Estimated
02:59PM 11.2557 94.8842 137° Southeast  Level Estimated
03:00PM 11.1597 94.9755 137° Southeast  Level Estimated
03:01PM 11.0638 95.0667 137° Southeast  Level Estimated
03:02PM 10.9678 95.1578 137° Southeast  Level Estimated
03:03PM 10.8717 95.2489 137° Southeast  Level Estimated
03:04PM 10.7757 95.3399 137° Southeast  Level Estimated
03:05PM 10.6796 95.4309 137° Southeast  Level Estimated
03:06PM 10.5835 95.5218 137° Southeast  Level Estimated
03:07PM 10.4874 95.6126 137° Southeast  Level Estimated
03:08PM 10.3912 95.7034 137° Southeast  Level Estimated
03:09PM 10.2950 95.7941 137° Southeast  Level Estimated
03:10PM 10.1988 95.8848 137° Southeast  Level Estimated
03:11PM 10.1026 95.9754 137° Southeast  Level Estimated
03:12PM 10.0063 96.0660 137° Southeast  Level Estimated
03:13PM 9.9101 96.1565 137° Southeast  Level Estimated
03:14PM 9.8137 96.2470 137° Southeast  Level Estimated
03:15PM 9.7174 96.3374 137° Southeast  Level Estimated
03:16PM 9.6211 96.4278 137° Southeast  Level Estimated
03:17PM 9.5247 96.5181 137° Southeast  Level Estimated
03:18PM 9.4283 96.6083 137° Southeast  Level Estimated
03:19PM 9.3319 96.6985 137° Southeast  Level Estimated
03:19PM 9.7970 96.7400 137° Southeast 450 518 41,000  Level FlightAware
03:20PM 9.2354 96.7887 137° Southeast  Level Estimated
03:20PM 9.6950 96.8300 139° Southeast 445 512 41,000  Level FlightAware
03:21PM 9.1389 96.8788 137° Southeast  Level Estimated
03:22PM 9.6110 96.9070 138° Southeast 445 512 41,000  Level FlightAware
03:22PM 9.5800 96.9350 138° Southeast 445 512 41,000  Level FlightAware
03:23PM 9.4740 97.0250 140° Southeast 449 517 41,000  Level FlightAware
03:23PM 9.4140 97.0780 139° Southeast 449 517 41,000  Level FlightAware
03:24PM 9.3700 97.1170 139° Southeast 447 514 41,000  Level FlightAware
03:25PM 9.3100 97.1700 139° Southeast 449 517 41,000  Level FlightAware
03:26PM 9.2170 97.2520 139° Southeast 445 512 41,000  Level FlightAware
03:26PM 9.1260 97.3320 139° Southeast 445 512 41,000  Level FlightAware
03:27PM 9.0770 97.3750 139° Southeast 442 509 41,000  Level FlightAware
03:28PM 8.9810 97.4600 139° Southeast 445 512 41,000  Level FlightAware
03:29PM 8.9370 97.4980 140° Southeast 446 513 41,000  Level FlightAware
03:29PM 8.8900 97.5400 139° Southeast 447 514 41,000  Level FlightAware
03:30PM 8.8310 97.5920 139° Southeast 447 514 41,000  Level FlightAware
03:30PM 8.7770 97.6380 140° Southeast 448 516 41,000  Level FlightAware
03:31PM 8.7270 97.6820 139° Southeast 448 516 41,000  Level FlightAware
03:32PM 8.6240 97.7730 139° Southeast 445 512 41,000  Level FlightAware
03:32PM 8.5680 97.8220 139° Southeast 441 507 41,000  Level FlightAware
03:33PM 8.5190 97.8650 139° Southeast 440 506 41,000  Level FlightAware
03:34PM 8.4630 97.9140 139° Southeast 442 509 41,000  Level FlightAware
03:34PM 8.4030 97.9660 139° Southeast 445 512 41,000  Level FlightAware
03:35PM 8.3510 98.0120 139° Southeast 444 511 41,000  Level FlightAware
03:35PM 8.2970 98.0590 139° Southeast 444 511 41,000  Level FlightAware
03:36PM 8.2530 98.0980 139° Southeast 442 509 41,000  Level FlightAware
03:36PM 8.1960 98.1470 140° Southeast 441 507 41,000  Level FlightAware
03:37PM 8.1460 98.1910 139° Southeast 442 509 41,000  Level FlightAware
03:38PM 8.0910 98.2390 139° Southeast 442 509 41,000  Level FlightAware
03:39PM 8.0040 98.3150 139° Southeast 443 510 41,000  Level FlightAware
03:39PM 7.9590 98.3550 139° Southeast 443 510 41,000  Level FlightAware
03:40PM 7.9010 98.4290 128° Southeast 443 510 41,000  Level FlightAware
03:41PM 7.8430 98.5050 128° Southeast 442 509 41,000  Level FlightAware
03:42PM 7.7230 98.6070 140° Southeast 442 509 41,000  Level FlightAware
03:42PM 7.6600 98.6620 139° Southeast 440 506 41,000  Level FlightAware
03:43PM 7.5860 98.7240 140° Southeast 443 510 41,000  Level FlightAware
03:44PM 7.4820 98.8100 141° Southeast 448 516 41,000  Level FlightAware
03:45PM 7.4420 98.8440 140° Southeast 448 516 41,000  Level FlightAware
03:46PM 7.3570 98.9140 141° Southeast 445 512 41,000  Level FlightAware
03:47PM 7.2760 98.9820 140° Southeast 443 510 41,000  Level FlightAware
03:47PM 7.2260 99.0230 141° Southeast 444 511 41,000  Level FlightAware
03:48PM 7.1690 99.0710 140° Southeast 440 506 41,000  Level FlightAware
03:49PM 7.0880 99.1380 141° Southeast 435 501 41,000  Level FlightAware
03:50PM 6.9870 99.2220 140° Southeast 440 506 41,000  Level FlightAware
03:50PM 6.9330 99.2670 140° Southeast 442 509 41,000  Level FlightAware
03:51PM 6.8360 99.3480 140° Southeast 442 509 41,000  Level FlightAware
03:52PM 6.7600 99.4110 141° Southeast 440 506 41,000  Level FlightAware
03:52PM 6.7320 99.4350 140° Southeast 440 506 41,000  Level FlightAware
03:53PM 6.6960 99.4640 141° Southeast 442 509 41,000  Level FlightAware
03:53PM 6.6340 99.5160 140° Southeast 440 506 41,000  Level FlightAware
03:54PM 6.5360 99.5970 141° Southeast 438 504 41,000  Level FlightAware
03:55PM 6.4830 99.6410 140° Southeast 438 504 41,000  Level FlightAware
03:55PM 6.4360 99.6800 140° Southeast 440 506 41,000  Level FlightAware
03:56PM 6.3540 99.7420 143° Southeast 441 507 41,000  Level FlightAware
03:57PM 6.2930 99.7840 146° Southeast 440 506 41,000  Level FlightAware
03:57PM 6.2450 99.8190 144° Southeast 442 509 41,000  Level FlightAware
03:59PM 6.1270 99.9030 145° Southeast 444 511 41,000  Level FlightAware
04:00PM 6.0260 99.9760 144° Southeast 447 514 41,000  Level FlightAware
04:00PM 5.9800 100.0090 144° Southeast 449 517 41,000  Level FlightAware
04:01PM 5.9300 100.0450 144° Southeast 448 516 41,000  Level FlightAware
04:01PM 5.8570 100.0980 144° Southeast 450 518 41,000  Level FlightAware
04:02PM 5.7760 100.1800 135° Southeast 451 519 41,000  Level FlightAware
04:03PM 5.6970 100.2650 133° Southeast 454 522 41,000  Level FlightAware
04:04PM 5.6240 100.3560 129° Southeast 451 519 41,000  Level FlightAware
04:05PM 5.5510 100.4420 130° Southeast 437 503 41,000  Level FlightAware
04:06PM 5.4520 100.5270 139° Southeast 438 504 41,000  Level FlightAware
04:06PM 5.4110 100.5570 144° Southeast 439 505 41,000  Level FlightAware
04:07PM 5.3100 100.6260 146° Southeast 445 512 41,000  Level FlightAware
04:08PM 5.2660 100.6560 146° Southeast 445 512 41,000  Level FlightAware
04:08PM 5.1980 100.7010 147° Southeast 444 511 41,000  Level FlightAware
04:09PM 5.1120 100.7600 146° Southeast 442 509 41,000  Level FlightAware
04:10PM 5.0470 100.8040 146° Southeast 445 512 41,000  Level FlightAware
04:11PM 4.9850 100.8460 146° Southeast 444 511 41,000  Level FlightAware
04:12PM 4.8770 100.9190 146° Southeast 446 513 41,000  Level FlightAware
04:12PM 4.7880 100.9790 146° Southeast 446 513 41,000  Level FlightAware
04:13PM 4.7320 101.0170 146° Southeast 447 514 41,000  Level FlightAware
04:14PM 4.6430 101.0780 146° Southeast 451 519 41,000  Level FlightAware
04:14PM 4.5940 101.1110 146° Southeast 453 521 41,000  Level FlightAware
04:15PM 4.5030 101.1720 146° Southeast 458 527 41,000  Level FlightAware
04:16PM 4.4540 101.2060 145° Southeast 459 528 41,000  Level FlightAware
04:16PM 4.3620 101.2680 146° Southeast 460 529 41,000  Level FlightAware
04:17PM 4.2810 101.3230 146° Southeast 461 531 41,000  Level FlightAware
04:18PM 4.1800 101.3910 146° Southeast 462 532 41,000  Level FlightAware
04:19PM 4.1350 101.4220 146° Southeast 465 535 41,000  Level FlightAware
04:19PM 4.0740 101.4630 146° Southeast 466 536 41,000  Level FlightAware
04:20PM 3.9660 101.5360 146° Southeast 467 537 41,000  Level FlightAware
04:21PM 3.8850 101.5900 146° Southeast 467 537 41,000  Level FlightAware
04:21PM 3.8360 101.6230 146° Southeast 467 537 41,000  Level FlightAware
04:22PM 3.7230 101.7000 146° Southeast 442 509 41,000  Level FlightAware
04:23PM 3.6680 101.7370 146° Southeast 441 507 41,000  Level FlightAware
04:24PM 3.5620 101.8090 146° Southeast 447 514 41,000  Level FlightAware
04:25PM 3.4830 101.8620 146° Southeast 455 524 41,000  Level FlightAware
04:26PM 3.3920 101.9470 137° Southeast 458 527 41,000  Level FlightAware
04:26PM 3.3580 101.9820 134° Southeast 457 526 41,000  Level FlightAware
04:27PM 3.2600 102.0810 135° Southeast 455 524 41,000  Level FlightAware
04:28PM 3.1920 102.1500 135° Southeast 453 521 41,000  Level FlightAware
04:28PM 3.1550 102.1880 134° Southeast 454 522 41,000  Level FlightAware
04:29PM 3.0900 102.2540 135° Southeast 452 520 41,000  Level FlightAware
04:30PM 3.0270 102.3190 134° Southeast 454 522 41,000  Level FlightAware
04:31PM 2.9210 102.4060 141° Southeast 456 525 41,000  Level FlightAware
04:32PM 2.8400 102.4610 146° Southeast 457 526 41,000 -180 Level FlightAware
04:33PM 2.7350 102.5350 145° Southeast 454 522 40,700 -1,380 Descending FlightAware
04:33PM 2.6680 102.5840 144° Southeast 462 532 38,700 -1,920 Descending FlightAware
04:34PM 2.6010 102.6320 144° Southeast 469 540 37,800 -1,620 Descending FlightAware
04:35PM 2.5270 102.6850 144° Southeast 477 549 36,200 -1,560 Descending FlightAware
04:36PM 2.4810 102.7180 144° Southeast 475 547 36,000 -1,320 Descending FlightAware
04:36PM 2.4020 102.7730 145° Southeast 469 540 34,700 -2,340 Descending FlightAware
04:37PM 2.3080 102.8380 145° Southeast 466 536 32,500 -2,040 Descending FlightAware
04:38PM 2.2520 102.8770 145° Southeast 467 537 32,000 -1,680 Descending FlightAware
04:39PM 2.1460 102.9670 140° Southeast 459 528 29,900 -1,800 Descending FlightAware
04:39PM 2.0920 103.0320 130° Southeast 450 518 28,900 -1,560 Descending FlightAware
04:40PM 2.0430 103.0920 129° Southeast 437 503 27,800 -1,860 Descending FlightAware
04:41PM 1.9930 103.1520 130° Southeast 432 497 26,100 -3,420 Descending FlightAware
04:42PM 1.8990 103.2830 126° Southeast 439 505 22,100 -3,900 Descending FlightAware
04:42PM 1.8700 103.3310 121° Southeast 430 495 21,000 -2,820 Descending FlightAware
04:43PM 1.8150 103.4280 120° Southeast 422 486 18,200 -3,000 Descending FlightAware
04:44PM 1.7650 103.5120 121° Southeast 392 451 15,600 -3,240 Descending FlightAware
04:45PM 1.7230 103.5860 120° Southeast 384 442 12,800 -3,300 Descending FlightAware
04:46PM 1.6790 103.6740 117° Southeast 366 421 9,900 -3,120 Descending FlightAware
04:46PM 1.6570 103.7070 124° Southeast 359 413 8,700 -2,400 Descending FlightAware
04:46PM 1.6410 103.7410 115° Southeast 333 383 8,000 -1,260 Descending FlightAware
04:47PM 1.6270 103.7740 113° Southeast 308 354 7,700 -840 Descending FlightAware
04:47PM 1.6110 103.8100 114° Southeast 288 331 7,300 -840 Descending FlightAware
04:48PM 1.5990 103.8380 113° Southeast 272 313 7,000 -900 Descending FlightAware
04:48PM 1.5840 103.8720 114° Southeast 244 281 6,500 -1,020 Descending FlightAware
04:49PM 1.5750 103.8980 109° East 243 280 6,100 -960 Descending FlightAware
04:49PM 1.5700 103.9140 107° East 232 267 5,900 -960 Descending FlightAware
04:49PM 1.5640 103.9310 109° East 227 261 5,600 -1,020 Descending FlightAware
04:50PM 1.5570 103.9540 107° East 217 250 5,200 -1,140 Descending FlightAware
04:50PM 1.5510 103.9770 105° East 198 228 4,700 -1,740 Descending FlightAware
04:50PM 1.5440 103.9990 108° East 197 227 3,800 -1,680 Descending FlightAware
04:51PM 1.5380 104.0200 106° East 185 213 3,300 -1,260 Descending FlightAware
04:51PM 1.5260 104.0350 129° Southeast 167 192 2,800 -1,020 Descending FlightAware
04:52PM 1.5120 104.0380 168° South 169 194 2,600 -660 Descending FlightAware
04:52PM 1.4850 104.0350 186° South 169 194 2,200 -540 Descending FlightAware
04:53PM 1.4680 104.0280 202° Southwest 151 174 2,100 -540 Descending FlightAware
04:53PM 1.4530 104.0210 205° Southwest 141 162 1,800 -840 Descending FlightAware
04:53PM 1.4420 104.0170 200° South 140 161 1,500 -840 Descending FlightAware
04:54PM 1.4260 104.0100 204° Southwest 140 161 1,200 -720 Descending FlightAware
04:54PM 1.4120 104.0040 203° Southwest 140 161 900 -660 Descending FlightAware
04:55PM 1.3980 103.9980 203° Southwest 141 162 700 -720 Descending FlightAware
04:55PM 1.3810 103.9910 202° Southwest 141 162 300 -900 Descending FlightAware
04:55PM 1.3670 103.9850 203° Southwest 135 155 -840 Descending FlightAware